<?xml version="1.0" encoding="UTF-8" standalone="no" ?>
<gpx xmlns="http://www.topografix.com/GPX/1/1" xmlns:xsi="http://www.w3.org/2001/XMLSchema-instance" xsi:schemaLocation="http://www.topografix.com/GPX/1/1 http://www.topografix.com/GPX/1/1/gpx.xsd" version="1.1" creator="VisuGPX - https://www.visugpx.com">
  <metadata>
    <name>Tour de l'île de Batz</name>
  </metadata>
  <trk>
    <name><![CDATA[07/10/2022 10:20:13  Tour de l'île de Batz]]></name>
    <trkseg>
      <trkpt lat="48.73999" lon="-4.00856">
        <ele>-1.7999999523163</ele>
        <time>2022-10-07T08:20:13Z</time>
      </trkpt>
      <trkpt lat="48.74" lon="-4.00856">
        <ele>-1.7999999523163</ele>
        <time>2022-10-07T08:20:14Z</time>
      </trkpt>
      <trkpt lat="48.74021" lon="-4.00855">
        <ele>-1.3999999761581</ele>
        <time>2022-10-07T08:20:36Z</time>
      </trkpt>
      <trkpt lat="48.74023" lon="-4.00856">
        <ele>-1.3999999761581</ele>
        <time>2022-10-07T08:20:37Z</time>
      </trkpt>
      <trkpt lat="48.74052" lon="-4.00856">
        <ele>-0.80000001192093</ele>
        <time>2022-10-07T08:21:03Z</time>
      </trkpt>
      <trkpt lat="48.74072" lon="-4.00861">
        <ele>1</ele>
        <time>2022-10-07T08:21:23Z</time>
      </trkpt>
      <trkpt lat="48.7408" lon="-4.00856">
        <ele>1</ele>
        <time>2022-10-07T08:21:48Z</time>
      </trkpt>
      <trkpt lat="48.74082" lon="-4.00853">
        <ele>1.2000000476837</ele>
        <time>2022-10-07T08:21:51Z</time>
      </trkpt>
      <trkpt lat="48.74086" lon="-4.00848">
        <ele>1.2000000476837</ele>
        <time>2022-10-07T08:21:55Z</time>
      </trkpt>
      <trkpt lat="48.74088" lon="-4.00841">
        <ele>1.7999999523163</ele>
        <time>2022-10-07T08:22:00Z</time>
      </trkpt>
      <trkpt lat="48.74088" lon="-4.00838">
        <ele>1.7999999523163</ele>
        <time>2022-10-07T08:22:02Z</time>
      </trkpt>
      <trkpt lat="48.74088" lon="-4.00808">
        <ele>3</ele>
        <time>2022-10-07T08:22:21Z</time>
      </trkpt>
      <trkpt lat="48.74081" lon="-4.00778">
        <ele>3.4000000953674</ele>
        <time>2022-10-07T08:22:44Z</time>
      </trkpt>
      <trkpt lat="48.7408" lon="-4.00762">
        <ele>3.5999999046326</ele>
        <time>2022-10-07T08:23:03Z</time>
      </trkpt>
      <trkpt lat="48.74089" lon="-4.00756">
        <ele>3.7999999523163</ele>
        <time>2022-10-07T08:23:19Z</time>
      </trkpt>
      <trkpt lat="48.74091" lon="-4.00753">
        <ele>4</ele>
        <time>2022-10-07T08:23:28Z</time>
      </trkpt>
      <trkpt lat="48.74101" lon="-4.00734">
        <ele>4</ele>
        <time>2022-10-07T08:23:44Z</time>
      </trkpt>
      <trkpt lat="48.74109" lon="-4.00722">
        <ele>4</ele>
        <time>2022-10-07T08:23:54Z</time>
      </trkpt>
      <trkpt lat="48.74121" lon="-4.00715">
        <ele>4</ele>
        <time>2022-10-07T08:24:06Z</time>
      </trkpt>
      <trkpt lat="48.74135" lon="-4.00708">
        <ele>4</ele>
        <time>2022-10-07T08:24:20Z</time>
      </trkpt>
      <trkpt lat="48.74154" lon="-4.00717">
        <ele>4</ele>
        <time>2022-10-07T08:24:37Z</time>
      </trkpt>
      <trkpt lat="48.74172" lon="-4.00737">
        <ele>3.7999999523163</ele>
        <time>2022-10-07T08:24:55Z</time>
      </trkpt>
      <trkpt lat="48.7419" lon="-4.00759">
        <ele>3.5999999046326</ele>
        <time>2022-10-07T08:25:14Z</time>
      </trkpt>
      <trkpt lat="48.74211" lon="-4.00777">
        <ele>3.7999999523163</ele>
        <time>2022-10-07T08:25:33Z</time>
      </trkpt>
      <trkpt lat="48.74224" lon="-4.00794">
        <ele>4</ele>
        <time>2022-10-07T08:25:50Z</time>
      </trkpt>
      <trkpt lat="48.74242" lon="-4.00809">
        <ele>3.5999999046326</ele>
        <time>2022-10-07T08:26:10Z</time>
      </trkpt>
      <trkpt lat="48.74258" lon="-4.00833">
        <ele>3.7999999523163</ele>
        <time>2022-10-07T08:26:28Z</time>
      </trkpt>
      <trkpt lat="48.74279" lon="-4.00856">
        <ele>4</ele>
        <time>2022-10-07T08:26:48Z</time>
      </trkpt>
      <trkpt lat="48.74297" lon="-4.00879">
        <ele>4.1999998092651</ele>
        <time>2022-10-07T08:27:07Z</time>
      </trkpt>
      <trkpt lat="48.74313" lon="-4.00899">
        <ele>4.8000001907349</ele>
        <time>2022-10-07T08:27:25Z</time>
      </trkpt>
      <trkpt lat="48.74322" lon="-4.00908">
        <ele>5</ele>
        <time>2022-10-07T08:27:34Z</time>
      </trkpt>
      <trkpt lat="48.74327" lon="-4.00907">
        <ele>5.1999998092651</ele>
        <time>2022-10-07T08:27:38Z</time>
      </trkpt>
      <trkpt lat="48.7433" lon="-4.00908">
        <ele>5.1999998092651</ele>
        <time>2022-10-07T08:27:41Z</time>
      </trkpt>
      <trkpt lat="48.74337" lon="-4.00917">
        <ele>6.4000000953674</ele>
        <time>2022-10-07T08:28:01Z</time>
      </trkpt>
      <trkpt lat="48.74352" lon="-4.00934">
        <ele>7.5999999046326</ele>
        <time>2022-10-07T08:28:23Z</time>
      </trkpt>
      <trkpt lat="48.74373" lon="-4.00951">
        <ele>9.3999996185303</ele>
        <time>2022-10-07T08:28:43Z</time>
      </trkpt>
      <trkpt lat="48.74394" lon="-4.00963">
        <ele>11.199999809265</ele>
        <time>2022-10-07T08:29:00Z</time>
      </trkpt>
      <trkpt lat="48.74407" lon="-4.00973">
        <ele>13</ele>
        <time>2022-10-07T08:29:14Z</time>
      </trkpt>
      <trkpt lat="48.7442" lon="-4.00986">
        <ele>14</ele>
        <time>2022-10-07T08:29:27Z</time>
      </trkpt>
      <trkpt lat="48.74434" lon="-4.01021">
        <ele>15.199999809265</ele>
        <time>2022-10-07T08:29:49Z</time>
      </trkpt>
      <trkpt lat="48.74436" lon="-4.01035">
        <ele>15</ele>
        <time>2022-10-07T08:29:55Z</time>
      </trkpt>
      <trkpt lat="48.74444" lon="-4.01072">
        <ele>12.800000190735</ele>
        <time>2022-10-07T08:30:15Z</time>
      </trkpt>
      <trkpt lat="48.74445" lon="-4.011">
        <ele>11</ele>
        <time>2022-10-07T08:30:30Z</time>
      </trkpt>
      <trkpt lat="48.74448" lon="-4.01133">
        <ele>10.199999809265</ele>
        <time>2022-10-07T08:30:48Z</time>
      </trkpt>
      <trkpt lat="48.74447" lon="-4.01167">
        <ele>8.6000003814697</ele>
        <time>2022-10-07T08:31:08Z</time>
      </trkpt>
      <trkpt lat="48.74448" lon="-4.01194">
        <ele>7.5999999046326</ele>
        <time>2022-10-07T08:31:27Z</time>
      </trkpt>
      <trkpt lat="48.74449" lon="-4.01216">
        <ele>6.8000001907349</ele>
        <time>2022-10-07T08:31:42Z</time>
      </trkpt>
      <trkpt lat="48.74449" lon="-4.01253">
        <ele>4.8000001907349</ele>
        <time>2022-10-07T08:32:07Z</time>
      </trkpt>
      <trkpt lat="48.74446" lon="-4.01246">
        <ele>4.5999999046326</ele>
        <time>2022-10-07T08:32:22Z</time>
      </trkpt>
      <trkpt lat="48.74444" lon="-4.01249">
        <ele>4.4000000953674</ele>
        <time>2022-10-07T08:32:45Z</time>
      </trkpt>
      <trkpt lat="48.7444" lon="-4.01246">
        <ele>4.5999999046326</ele>
        <time>2022-10-07T08:33:10Z</time>
      </trkpt>
      <trkpt lat="48.74448" lon="-4.01249">
        <ele>4.5999999046326</ele>
        <time>2022-10-07T08:33:31Z</time>
      </trkpt>
      <trkpt lat="48.74445" lon="-4.01266">
        <ele>4.4000000953674</ele>
        <time>2022-10-07T08:33:43Z</time>
      </trkpt>
      <trkpt lat="48.74445" lon="-4.01273">
        <ele>4.4000000953674</ele>
        <time>2022-10-07T08:33:50Z</time>
      </trkpt>
      <trkpt lat="48.74447" lon="-4.01269">
        <ele>4.1999998092651</ele>
        <time>2022-10-07T08:34:04Z</time>
      </trkpt>
      <trkpt lat="48.74447" lon="-4.0128">
        <ele>4.1999998092651</ele>
        <time>2022-10-07T08:34:24Z</time>
      </trkpt>
      <trkpt lat="48.74449" lon="-4.01291">
        <ele>4.4000000953674</ele>
        <time>2022-10-07T08:34:38Z</time>
      </trkpt>
      <trkpt lat="48.74448" lon="-4.01331">
        <ele>3.4000000953674</ele>
        <time>2022-10-07T08:35:01Z</time>
      </trkpt>
      <trkpt lat="48.74446" lon="-4.01351">
        <ele>3.2000000476837</ele>
        <time>2022-10-07T08:35:14Z</time>
      </trkpt>
      <trkpt lat="48.74446" lon="-4.01355">
        <ele>3.2000000476837</ele>
        <time>2022-10-07T08:35:16Z</time>
      </trkpt>
      <trkpt lat="48.74439" lon="-4.01393">
        <ele>3.2000000476837</ele>
        <time>2022-10-07T08:35:36Z</time>
      </trkpt>
      <trkpt lat="48.74436" lon="-4.01409">
        <ele>3.2000000476837</ele>
        <time>2022-10-07T08:35:46Z</time>
      </trkpt>
      <trkpt lat="48.74435" lon="-4.01416">
        <ele>3.2000000476837</ele>
        <time>2022-10-07T08:35:50Z</time>
      </trkpt>
      <trkpt lat="48.74427" lon="-4.0145">
        <ele>3.5999999046326</ele>
        <time>2022-10-07T08:36:07Z</time>
      </trkpt>
      <trkpt lat="48.74425" lon="-4.01456">
        <ele>3.5999999046326</ele>
        <time>2022-10-07T08:36:11Z</time>
      </trkpt>
      <trkpt lat="48.74416" lon="-4.01479">
        <ele>3.5999999046326</ele>
        <time>2022-10-07T08:36:32Z</time>
      </trkpt>
      <trkpt lat="48.74413" lon="-4.01486">
        <ele>3.5999999046326</ele>
        <time>2022-10-07T08:36:37Z</time>
      </trkpt>
      <trkpt lat="48.7441" lon="-4.01495">
        <ele>3.7999999523163</ele>
        <time>2022-10-07T08:36:56Z</time>
      </trkpt>
      <trkpt lat="48.74409" lon="-4.01492">
        <ele>3.5999999046326</ele>
        <time>2022-10-07T08:37:13Z</time>
      </trkpt>
      <trkpt lat="48.74407" lon="-4.01497">
        <ele>3.5999999046326</ele>
        <time>2022-10-07T08:37:29Z</time>
      </trkpt>
      <trkpt lat="48.74408" lon="-4.01496">
        <ele>3.5999999046326</ele>
        <time>2022-10-07T08:37:48Z</time>
      </trkpt>
      <trkpt lat="48.74408" lon="-4.01499">
        <ele>3.5999999046326</ele>
        <time>2022-10-07T08:38:06Z</time>
      </trkpt>
      <trkpt lat="48.74398" lon="-4.01518">
        <ele>3.7999999523163</ele>
        <time>2022-10-07T08:38:23Z</time>
      </trkpt>
      <trkpt lat="48.74379" lon="-4.01543">
        <ele>4</ele>
        <time>2022-10-07T08:38:43Z</time>
      </trkpt>
      <trkpt lat="48.74357" lon="-4.01552">
        <ele>4.1999998092651</ele>
        <time>2022-10-07T08:39:01Z</time>
      </trkpt>
      <trkpt lat="48.74339" lon="-4.0156">
        <ele>4.8000001907349</ele>
        <time>2022-10-07T08:39:16Z</time>
      </trkpt>
      <trkpt lat="48.74334" lon="-4.01563">
        <ele>4.8000001907349</ele>
        <time>2022-10-07T08:39:20Z</time>
      </trkpt>
      <trkpt lat="48.7433" lon="-4.01567">
        <ele>5.5999999046326</ele>
        <time>2022-10-07T08:39:26Z</time>
      </trkpt>
      <trkpt lat="48.74324" lon="-4.01584">
        <ele>7.1999998092651</ele>
        <time>2022-10-07T08:39:39Z</time>
      </trkpt>
      <trkpt lat="48.74322" lon="-4.01599">
        <ele>8.8000001907349</ele>
        <time>2022-10-07T08:39:51Z</time>
      </trkpt>
      <trkpt lat="48.74313" lon="-4.01607">
        <ele>9.1999998092651</ele>
        <time>2022-10-07T08:40:01Z</time>
      </trkpt>
      <trkpt lat="48.74302" lon="-4.01618">
        <ele>9</ele>
        <time>2022-10-07T08:40:21Z</time>
      </trkpt>
      <trkpt lat="48.74294" lon="-4.01619">
        <ele>8.6000003814697</ele>
        <time>2022-10-07T08:40:39Z</time>
      </trkpt>
      <trkpt lat="48.74301" lon="-4.01621">
        <ele>8.1999998092651</ele>
        <time>2022-10-07T08:40:59Z</time>
      </trkpt>
      <trkpt lat="48.74304" lon="-4.01651">
        <ele>5.8000001907349</ele>
        <time>2022-10-07T08:41:22Z</time>
      </trkpt>
      <trkpt lat="48.74303" lon="-4.01662">
        <ele>4.5999999046326</ele>
        <time>2022-10-07T08:41:29Z</time>
      </trkpt>
      <trkpt lat="48.74299" lon="-4.0169">
        <ele>4.1999998092651</ele>
        <time>2022-10-07T08:41:46Z</time>
      </trkpt>
      <trkpt lat="48.74292" lon="-4.01712">
        <ele>4.1999998092651</ele>
        <time>2022-10-07T08:42:04Z</time>
      </trkpt>
      <trkpt lat="48.74287" lon="-4.01722">
        <ele>4.1999998092651</ele>
        <time>2022-10-07T08:42:13Z</time>
      </trkpt>
      <trkpt lat="48.74279" lon="-4.01742">
        <ele>4</ele>
        <time>2022-10-07T08:42:29Z</time>
      </trkpt>
      <trkpt lat="48.74274" lon="-4.01765">
        <ele>4.1999998092651</ele>
        <time>2022-10-07T08:42:46Z</time>
      </trkpt>
      <trkpt lat="48.74269" lon="-4.01772">
        <ele>4.5999999046326</ele>
        <time>2022-10-07T08:42:54Z</time>
      </trkpt>
      <trkpt lat="48.74267" lon="-4.01776">
        <ele>4.5999999046326</ele>
        <time>2022-10-07T08:42:57Z</time>
      </trkpt>
      <trkpt lat="48.74257" lon="-4.01786">
        <ele>5</ele>
        <time>2022-10-07T08:43:12Z</time>
      </trkpt>
      <trkpt lat="48.74236" lon="-4.01804">
        <ele>5</ele>
        <time>2022-10-07T08:43:34Z</time>
      </trkpt>
      <trkpt lat="48.74219" lon="-4.01816">
        <ele>4.8000001907349</ele>
        <time>2022-10-07T08:43:53Z</time>
      </trkpt>
      <trkpt lat="48.74203" lon="-4.01822">
        <ele>7</ele>
        <time>2022-10-07T08:44:12Z</time>
      </trkpt>
      <trkpt lat="48.7419" lon="-4.01829">
        <ele>9.1999998092651</ele>
        <time>2022-10-07T08:44:29Z</time>
      </trkpt>
      <trkpt lat="48.74166" lon="-4.01846">
        <ele>11.60000038147</ele>
        <time>2022-10-07T08:44:56Z</time>
      </trkpt>
      <trkpt lat="48.74162" lon="-4.01851">
        <ele>12</ele>
        <time>2022-10-07T08:45:04Z</time>
      </trkpt>
      <trkpt lat="48.74147" lon="-4.01861">
        <ele>12.199999809265</ele>
        <time>2022-10-07T08:45:19Z</time>
      </trkpt>
      <trkpt lat="48.74143" lon="-4.01867">
        <ele>13</ele>
        <time>2022-10-07T08:45:35Z</time>
      </trkpt>
      <trkpt lat="48.74141" lon="-4.01869">
        <ele>13</ele>
        <time>2022-10-07T08:45:37Z</time>
      </trkpt>
      <trkpt lat="48.74119" lon="-4.0188">
        <ele>13.199999809265</ele>
        <time>2022-10-07T08:45:59Z</time>
      </trkpt>
      <trkpt lat="48.741" lon="-4.0188">
        <ele>13.199999809265</ele>
        <time>2022-10-07T08:46:16Z</time>
      </trkpt>
      <trkpt lat="48.74075" lon="-4.01896">
        <ele>13.39999961853</ele>
        <time>2022-10-07T08:46:40Z</time>
      </trkpt>
      <trkpt lat="48.74067" lon="-4.01905">
        <ele>12</ele>
        <time>2022-10-07T08:46:48Z</time>
      </trkpt>
      <trkpt lat="48.74057" lon="-4.01934">
        <ele>8.8000001907349</ele>
        <time>2022-10-07T08:47:08Z</time>
      </trkpt>
      <trkpt lat="48.74049" lon="-4.01948">
        <ele>7.1999998092651</ele>
        <time>2022-10-07T08:47:22Z</time>
      </trkpt>
      <trkpt lat="48.74042" lon="-4.01957">
        <ele>6.5999999046326</ele>
        <time>2022-10-07T08:47:39Z</time>
      </trkpt>
      <trkpt lat="48.74039" lon="-4.01971">
        <ele>6</ele>
        <time>2022-10-07T08:47:55Z</time>
      </trkpt>
      <trkpt lat="48.74042" lon="-4.01998">
        <ele>6</ele>
        <time>2022-10-07T08:48:17Z</time>
      </trkpt>
      <trkpt lat="48.74038" lon="-4.0203">
        <ele>5.8000001907349</ele>
        <time>2022-10-07T08:48:44Z</time>
      </trkpt>
      <trkpt lat="48.74029" lon="-4.02046">
        <ele>6</ele>
        <time>2022-10-07T08:49:03Z</time>
      </trkpt>
      <trkpt lat="48.7401" lon="-4.02063">
        <ele>6</ele>
        <time>2022-10-07T08:49:23Z</time>
      </trkpt>
      <trkpt lat="48.74003" lon="-4.0208">
        <ele>6.5999999046326</ele>
        <time>2022-10-07T08:49:35Z</time>
      </trkpt>
      <trkpt lat="48.74003" lon="-4.02092">
        <ele>7.5999999046326</ele>
        <time>2022-10-07T08:49:42Z</time>
      </trkpt>
      <trkpt lat="48.7399" lon="-4.0211">
        <ele>10</ele>
        <time>2022-10-07T08:50:00Z</time>
      </trkpt>
      <trkpt lat="48.73981" lon="-4.02125">
        <ele>11.60000038147</ele>
        <time>2022-10-07T08:50:13Z</time>
      </trkpt>
      <trkpt lat="48.73976" lon="-4.02145">
        <ele>13</ele>
        <time>2022-10-07T08:50:28Z</time>
      </trkpt>
      <trkpt lat="48.73974" lon="-4.0215">
        <ele>13.199999809265</ele>
        <time>2022-10-07T08:50:31Z</time>
      </trkpt>
      <trkpt lat="48.73973" lon="-4.02158">
        <ele>13.60000038147</ele>
        <time>2022-10-07T08:50:36Z</time>
      </trkpt>
      <trkpt lat="48.73968" lon="-4.02193">
        <ele>15.39999961853</ele>
        <time>2022-10-07T08:50:57Z</time>
      </trkpt>
      <trkpt lat="48.73967" lon="-4.02203">
        <ele>16.60000038147</ele>
        <time>2022-10-07T08:51:12Z</time>
      </trkpt>
      <trkpt lat="48.73967" lon="-4.02208">
        <ele>16.60000038147</ele>
        <time>2022-10-07T08:51:15Z</time>
      </trkpt>
      <trkpt lat="48.73965" lon="-4.02241">
        <ele>17.799999237061</ele>
        <time>2022-10-07T08:51:35Z</time>
      </trkpt>
      <trkpt lat="48.73961" lon="-4.02268">
        <ele>18.799999237061</ele>
        <time>2022-10-07T08:51:52Z</time>
      </trkpt>
      <trkpt lat="48.73958" lon="-4.0228">
        <ele>19</ele>
        <time>2022-10-07T08:52:01Z</time>
      </trkpt>
      <trkpt lat="48.73955" lon="-4.02296">
        <ele>18.39999961853</ele>
        <time>2022-10-07T08:52:19Z</time>
      </trkpt>
      <trkpt lat="48.73948" lon="-4.02316">
        <ele>16</ele>
        <time>2022-10-07T08:52:38Z</time>
      </trkpt>
      <trkpt lat="48.7394" lon="-4.02316">
        <ele>14.39999961853</ele>
        <time>2022-10-07T08:52:54Z</time>
      </trkpt>
      <trkpt lat="48.73933" lon="-4.02315">
        <ele>14.199999809265</ele>
        <time>2022-10-07T08:53:09Z</time>
      </trkpt>
      <trkpt lat="48.7393" lon="-4.02311">
        <ele>13.39999961853</ele>
        <time>2022-10-07T08:53:27Z</time>
      </trkpt>
      <trkpt lat="48.7393" lon="-4.02311">
        <ele>12.39999961853</ele>
        <time>2022-10-07T08:53:51Z</time>
      </trkpt>
      <trkpt lat="48.73928" lon="-4.02307">
        <ele>12</ele>
        <time>2022-10-07T08:54:24Z</time>
      </trkpt>
      <trkpt lat="48.73933" lon="-4.02311">
        <ele>11.800000190735</ele>
        <time>2022-10-07T08:54:36Z</time>
      </trkpt>
      <trkpt lat="48.73937" lon="-4.02309">
        <ele>13.800000190735</ele>
        <time>2022-10-07T08:54:48Z</time>
      </trkpt>
      <trkpt lat="48.73937" lon="-4.02303">
        <ele>14.39999961853</ele>
        <time>2022-10-07T08:55:08Z</time>
      </trkpt>
      <trkpt lat="48.73937" lon="-4.02304">
        <ele>14.800000190735</ele>
        <time>2022-10-07T08:55:55Z</time>
      </trkpt>
      <trkpt lat="48.73937" lon="-4.02303">
        <ele>14.39999961853</ele>
        <time>2022-10-07T08:56:23Z</time>
      </trkpt>
      <trkpt lat="48.73937" lon="-4.02309">
        <ele>14.60000038147</ele>
        <time>2022-10-07T08:57:21Z</time>
      </trkpt>
      <trkpt lat="48.73944" lon="-4.02316">
        <ele>14.60000038147</ele>
        <time>2022-10-07T08:57:37Z</time>
      </trkpt>
      <trkpt lat="48.73948" lon="-4.02315">
        <ele>14.60000038147</ele>
        <time>2022-10-07T08:57:42Z</time>
      </trkpt>
      <trkpt lat="48.73956" lon="-4.02312">
        <ele>15.39999961853</ele>
        <time>2022-10-07T08:57:56Z</time>
      </trkpt>
      <trkpt lat="48.73958" lon="-4.02317">
        <ele>15.60000038147</ele>
        <time>2022-10-07T08:57:59Z</time>
      </trkpt>
      <trkpt lat="48.73973" lon="-4.02353">
        <ele>14.800000190735</ele>
        <time>2022-10-07T08:58:20Z</time>
      </trkpt>
      <trkpt lat="48.73975" lon="-4.02368">
        <ele>14.39999961853</ele>
        <time>2022-10-07T08:58:29Z</time>
      </trkpt>
      <trkpt lat="48.73977" lon="-4.02373">
        <ele>14.39999961853</ele>
        <time>2022-10-07T08:58:32Z</time>
      </trkpt>
      <trkpt lat="48.73984" lon="-4.02392">
        <ele>14.60000038147</ele>
        <time>2022-10-07T08:58:46Z</time>
      </trkpt>
      <trkpt lat="48.73984" lon="-4.02413">
        <ele>13.60000038147</ele>
        <time>2022-10-07T08:58:59Z</time>
      </trkpt>
      <trkpt lat="48.73985" lon="-4.02421">
        <ele>13.199999809265</ele>
        <time>2022-10-07T08:59:03Z</time>
      </trkpt>
      <trkpt lat="48.73988" lon="-4.02453">
        <ele>13</ele>
        <time>2022-10-07T08:59:20Z</time>
      </trkpt>
      <trkpt lat="48.73991" lon="-4.02489">
        <ele>13.60000038147</ele>
        <time>2022-10-07T08:59:42Z</time>
      </trkpt>
      <trkpt lat="48.7399" lon="-4.02497">
        <ele>14</ele>
        <time>2022-10-07T08:59:47Z</time>
      </trkpt>
      <trkpt lat="48.73998" lon="-4.02512">
        <ele>14.39999961853</ele>
        <time>2022-10-07T09:00:00Z</time>
      </trkpt>
      <trkpt lat="48.74011" lon="-4.02522">
        <ele>14.39999961853</ele>
        <time>2022-10-07T09:00:18Z</time>
      </trkpt>
      <trkpt lat="48.74019" lon="-4.02532">
        <ele>14</ele>
        <time>2022-10-07T09:00:33Z</time>
      </trkpt>
      <trkpt lat="48.74023" lon="-4.02545">
        <ele>12.800000190735</ele>
        <time>2022-10-07T09:00:49Z</time>
      </trkpt>
      <trkpt lat="48.74026" lon="-4.02561">
        <ele>12.199999809265</ele>
        <time>2022-10-07T09:01:08Z</time>
      </trkpt>
      <trkpt lat="48.74032" lon="-4.02572">
        <ele>10.800000190735</ele>
        <time>2022-10-07T09:01:25Z</time>
      </trkpt>
      <trkpt lat="48.74033" lon="-4.02576">
        <ele>9.1999998092651</ele>
        <time>2022-10-07T09:01:46Z</time>
      </trkpt>
      <trkpt lat="48.74031" lon="-4.02576">
        <ele>9.8000001907349</ele>
        <time>2022-10-07T09:03:05Z</time>
      </trkpt>
      <trkpt lat="48.74033" lon="-4.02576">
        <ele>10.39999961853</ele>
        <time>2022-10-07T09:03:42Z</time>
      </trkpt>
      <trkpt lat="48.7403" lon="-4.02565">
        <ele>10.199999809265</ele>
        <time>2022-10-07T09:04:10Z</time>
      </trkpt>
      <trkpt lat="48.74032" lon="-4.02551">
        <ele>11</ele>
        <time>2022-10-07T09:04:21Z</time>
      </trkpt>
      <trkpt lat="48.74034" lon="-4.02546">
        <ele>11.199999809265</ele>
        <time>2022-10-07T09:04:25Z</time>
      </trkpt>
      <trkpt lat="48.74052" lon="-4.02556">
        <ele>12</ele>
        <time>2022-10-07T09:04:43Z</time>
      </trkpt>
      <trkpt lat="48.74073" lon="-4.02563">
        <ele>10.60000038147</ele>
        <time>2022-10-07T09:05:01Z</time>
      </trkpt>
      <trkpt lat="48.74094" lon="-4.02571">
        <ele>10.39999961853</ele>
        <time>2022-10-07T09:05:19Z</time>
      </trkpt>
      <trkpt lat="48.74113" lon="-4.02571">
        <ele>9.1999998092651</ele>
        <time>2022-10-07T09:05:34Z</time>
      </trkpt>
      <trkpt lat="48.74132" lon="-4.02576">
        <ele>9</ele>
        <time>2022-10-07T09:05:51Z</time>
      </trkpt>
      <trkpt lat="48.7415" lon="-4.02586">
        <ele>9.1999998092651</ele>
        <time>2022-10-07T09:06:09Z</time>
      </trkpt>
      <trkpt lat="48.74171" lon="-4.02587">
        <ele>9.8000001907349</ele>
        <time>2022-10-07T09:06:27Z</time>
      </trkpt>
      <trkpt lat="48.74185" lon="-4.02596">
        <ele>10.199999809265</ele>
        <time>2022-10-07T09:06:43Z</time>
      </trkpt>
      <trkpt lat="48.74191" lon="-4.02606">
        <ele>10</ele>
        <time>2022-10-07T09:06:52Z</time>
      </trkpt>
      <trkpt lat="48.74193" lon="-4.0261">
        <ele>9.8000001907349</ele>
        <time>2022-10-07T09:06:55Z</time>
      </trkpt>
      <trkpt lat="48.74196" lon="-4.02616">
        <ele>9.8000001907349</ele>
        <time>2022-10-07T09:07:00Z</time>
      </trkpt>
      <trkpt lat="48.74207" lon="-4.02634">
        <ele>9</ele>
        <time>2022-10-07T09:07:15Z</time>
      </trkpt>
      <trkpt lat="48.74208" lon="-4.02639">
        <ele>8.8000001907349</ele>
        <time>2022-10-07T09:07:19Z</time>
      </trkpt>
      <trkpt lat="48.74214" lon="-4.02657">
        <ele>9</ele>
        <time>2022-10-07T09:07:34Z</time>
      </trkpt>
      <trkpt lat="48.74219" lon="-4.02676">
        <ele>9.6000003814697</ele>
        <time>2022-10-07T09:07:47Z</time>
      </trkpt>
      <trkpt lat="48.74226" lon="-4.02698">
        <ele>9.6000003814697</ele>
        <time>2022-10-07T09:08:02Z</time>
      </trkpt>
      <trkpt lat="48.7423" lon="-4.02711">
        <ele>9.3999996185303</ele>
        <time>2022-10-07T09:08:17Z</time>
      </trkpt>
      <trkpt lat="48.74227" lon="-4.02725">
        <ele>7.4000000953674</ele>
        <time>2022-10-07T09:08:33Z</time>
      </trkpt>
      <trkpt lat="48.74224" lon="-4.02723">
        <ele>5</ele>
        <time>2022-10-07T09:08:53Z</time>
      </trkpt>
      <trkpt lat="48.74226" lon="-4.02718">
        <ele>5.4000000953674</ele>
        <time>2022-10-07T09:09:30Z</time>
      </trkpt>
      <trkpt lat="48.74228" lon="-4.02723">
        <ele>5.1999998092651</ele>
        <time>2022-10-07T09:09:48Z</time>
      </trkpt>
      <trkpt lat="48.74226" lon="-4.02724">
        <ele>4.8000001907349</ele>
        <time>2022-10-07T09:10:02Z</time>
      </trkpt>
      <trkpt lat="48.74227" lon="-4.02721">
        <ele>4.8000001907349</ele>
        <time>2022-10-07T09:10:20Z</time>
      </trkpt>
      <trkpt lat="48.74227" lon="-4.02722">
        <ele>4.5999999046326</ele>
        <time>2022-10-07T09:11:10Z</time>
      </trkpt>
      <trkpt lat="48.74226" lon="-4.02716">
        <ele>5</ele>
        <time>2022-10-07T09:11:53Z</time>
      </trkpt>
      <trkpt lat="48.74232" lon="-4.02712">
        <ele>8</ele>
        <time>2022-10-07T09:12:08Z</time>
      </trkpt>
      <trkpt lat="48.74233" lon="-4.02715">
        <ele>9.6000003814697</ele>
        <time>2022-10-07T09:12:31Z</time>
      </trkpt>
      <trkpt lat="48.74236" lon="-4.02723">
        <ele>9.6000003814697</ele>
        <time>2022-10-07T09:12:37Z</time>
      </trkpt>
      <trkpt lat="48.74242" lon="-4.02737">
        <ele>10</ele>
        <time>2022-10-07T09:12:49Z</time>
      </trkpt>
      <trkpt lat="48.74243" lon="-4.02738">
        <ele>10</ele>
        <time>2022-10-07T09:12:51Z</time>
      </trkpt>
      <trkpt lat="48.74249" lon="-4.02747">
        <ele>10</ele>
        <time>2022-10-07T09:12:59Z</time>
      </trkpt>
      <trkpt lat="48.7425" lon="-4.0275">
        <ele>10</ele>
        <time>2022-10-07T09:13:16Z</time>
      </trkpt>
      <trkpt lat="48.74251" lon="-4.02764">
        <ele>10</ele>
        <time>2022-10-07T09:13:27Z</time>
      </trkpt>
      <trkpt lat="48.7425" lon="-4.0278">
        <ele>9.8000001907349</ele>
        <time>2022-10-07T09:13:37Z</time>
      </trkpt>
      <trkpt lat="48.74249" lon="-4.02792">
        <ele>10</ele>
        <time>2022-10-07T09:13:45Z</time>
      </trkpt>
      <trkpt lat="48.74253" lon="-4.02822">
        <ele>11.199999809265</ele>
        <time>2022-10-07T09:14:03Z</time>
      </trkpt>
      <trkpt lat="48.74256" lon="-4.02829">
        <ele>11.800000190735</ele>
        <time>2022-10-07T09:14:08Z</time>
      </trkpt>
      <trkpt lat="48.74271" lon="-4.0285">
        <ele>11.39999961853</ele>
        <time>2022-10-07T09:14:25Z</time>
      </trkpt>
      <trkpt lat="48.74284" lon="-4.02876">
        <ele>10.60000038147</ele>
        <time>2022-10-07T09:14:40Z</time>
      </trkpt>
      <trkpt lat="48.74284" lon="-4.02878">
        <ele>10.39999961853</ele>
        <time>2022-10-07T09:14:41Z</time>
      </trkpt>
      <trkpt lat="48.74285" lon="-4.02885">
        <ele>10.199999809265</ele>
        <time>2022-10-07T09:14:45Z</time>
      </trkpt>
      <trkpt lat="48.74281" lon="-4.02919">
        <ele>9</ele>
        <time>2022-10-07T09:15:06Z</time>
      </trkpt>
      <trkpt lat="48.74281" lon="-4.0294">
        <ele>8.6000003814697</ele>
        <time>2022-10-07T09:15:21Z</time>
      </trkpt>
      <trkpt lat="48.74286" lon="-4.02976">
        <ele>8.1999998092651</ele>
        <time>2022-10-07T09:15:44Z</time>
      </trkpt>
      <trkpt lat="48.74285" lon="-4.02981">
        <ele>8</ele>
        <time>2022-10-07T09:15:48Z</time>
      </trkpt>
      <trkpt lat="48.74286" lon="-4.02984">
        <ele>8</ele>
        <time>2022-10-07T09:15:50Z</time>
      </trkpt>
      <trkpt lat="48.74282" lon="-4.03006">
        <ele>8</ele>
        <time>2022-10-07T09:16:03Z</time>
      </trkpt>
      <trkpt lat="48.74276" lon="-4.03032">
        <ele>9.1999998092651</ele>
        <time>2022-10-07T09:16:18Z</time>
      </trkpt>
      <trkpt lat="48.7427" lon="-4.03061">
        <ele>10.199999809265</ele>
        <time>2022-10-07T09:16:37Z</time>
      </trkpt>
      <trkpt lat="48.74283" lon="-4.03082">
        <ele>12</ele>
        <time>2022-10-07T09:16:57Z</time>
      </trkpt>
      <trkpt lat="48.74286" lon="-4.03083">
        <ele>12.199999809265</ele>
        <time>2022-10-07T09:17:00Z</time>
      </trkpt>
      <trkpt lat="48.74295" lon="-4.03103">
        <ele>11.39999961853</ele>
        <time>2022-10-07T09:17:15Z</time>
      </trkpt>
      <trkpt lat="48.74305" lon="-4.03125">
        <ele>11.800000190735</ele>
        <time>2022-10-07T09:17:33Z</time>
      </trkpt>
      <trkpt lat="48.74315" lon="-4.03153">
        <ele>12</ele>
        <time>2022-10-07T09:17:55Z</time>
      </trkpt>
      <trkpt lat="48.7432" lon="-4.0316">
        <ele>11.800000190735</ele>
        <time>2022-10-07T09:18:01Z</time>
      </trkpt>
      <trkpt lat="48.74324" lon="-4.03192">
        <ele>9.8000001907349</ele>
        <time>2022-10-07T09:18:19Z</time>
      </trkpt>
      <trkpt lat="48.74323" lon="-4.03199">
        <ele>9.1999998092651</ele>
        <time>2022-10-07T09:18:24Z</time>
      </trkpt>
      <trkpt lat="48.74324" lon="-4.03205">
        <ele>8.8000001907349</ele>
        <time>2022-10-07T09:18:28Z</time>
      </trkpt>
      <trkpt lat="48.74325" lon="-4.03235">
        <ele>7.5999999046326</ele>
        <time>2022-10-07T09:18:47Z</time>
      </trkpt>
      <trkpt lat="48.74332" lon="-4.03261">
        <ele>9.1999998092651</ele>
        <time>2022-10-07T09:19:07Z</time>
      </trkpt>
      <trkpt lat="48.74341" lon="-4.03288">
        <ele>8.6000003814697</ele>
        <time>2022-10-07T09:19:29Z</time>
      </trkpt>
      <trkpt lat="48.74341" lon="-4.03321">
        <ele>7.4000000953674</ele>
        <time>2022-10-07T09:19:50Z</time>
      </trkpt>
      <trkpt lat="48.7434" lon="-4.03347">
        <ele>6.8000001907349</ele>
        <time>2022-10-07T09:20:05Z</time>
      </trkpt>
      <trkpt lat="48.74335" lon="-4.03374">
        <ele>7.8000001907349</ele>
        <time>2022-10-07T09:20:23Z</time>
      </trkpt>
      <trkpt lat="48.74334" lon="-4.03376">
        <ele>7.8000001907349</ele>
        <time>2022-10-07T09:20:25Z</time>
      </trkpt>
      <trkpt lat="48.7433" lon="-4.03382">
        <ele>8</ele>
        <time>2022-10-07T09:20:29Z</time>
      </trkpt>
      <trkpt lat="48.74311" lon="-4.03394">
        <ele>9.1999998092651</ele>
        <time>2022-10-07T09:20:49Z</time>
      </trkpt>
      <trkpt lat="48.74291" lon="-4.03412">
        <ele>9.1999998092651</ele>
        <time>2022-10-07T09:21:08Z</time>
      </trkpt>
      <trkpt lat="48.74284" lon="-4.03413">
        <ele>8.8000001907349</ele>
        <time>2022-10-07T09:21:22Z</time>
      </trkpt>
      <trkpt lat="48.74282" lon="-4.03414">
        <ele>9</ele>
        <time>2022-10-07T09:21:37Z</time>
      </trkpt>
      <trkpt lat="48.74279" lon="-4.03415">
        <ele>9</ele>
        <time>2022-10-07T09:21:40Z</time>
      </trkpt>
      <trkpt lat="48.74265" lon="-4.0342">
        <ele>9.1999998092651</ele>
        <time>2022-10-07T09:21:56Z</time>
      </trkpt>
      <trkpt lat="48.74246" lon="-4.03435">
        <ele>9.8000001907349</ele>
        <time>2022-10-07T09:22:16Z</time>
      </trkpt>
      <trkpt lat="48.74237" lon="-4.03463">
        <ele>11.800000190735</ele>
        <time>2022-10-07T09:22:38Z</time>
      </trkpt>
      <trkpt lat="48.74239" lon="-4.03471">
        <ele>12.39999961853</ele>
        <time>2022-10-07T09:22:45Z</time>
      </trkpt>
      <trkpt lat="48.74255" lon="-4.03498">
        <ele>15.199999809265</ele>
        <time>2022-10-07T09:23:09Z</time>
      </trkpt>
      <trkpt lat="48.74264" lon="-4.03517">
        <ele>17.200000762939</ele>
        <time>2022-10-07T09:23:26Z</time>
      </trkpt>
      <trkpt lat="48.74272" lon="-4.03536">
        <ele>18.799999237061</ele>
        <time>2022-10-07T09:23:42Z</time>
      </trkpt>
      <trkpt lat="48.74275" lon="-4.0354">
        <ele>19.39999961853</ele>
        <time>2022-10-07T09:23:47Z</time>
      </trkpt>
      <trkpt lat="48.7429" lon="-4.03553">
        <ele>20.39999961853</ele>
        <time>2022-10-07T09:24:06Z</time>
      </trkpt>
      <trkpt lat="48.7429" lon="-4.03544">
        <ele>21.799999237061</ele>
        <time>2022-10-07T09:24:21Z</time>
      </trkpt>
      <trkpt lat="48.7429" lon="-4.03538">
        <ele>22.39999961853</ele>
        <time>2022-10-07T09:24:44Z</time>
      </trkpt>
      <trkpt lat="48.74291" lon="-4.03538">
        <ele>22.799999237061</ele>
        <time>2022-10-07T09:25:06Z</time>
      </trkpt>
      <trkpt lat="48.74291" lon="-4.03534">
        <ele>24.799999237061</ele>
        <time>2022-10-07T09:25:26Z</time>
      </trkpt>
      <trkpt lat="48.74287" lon="-4.03524">
        <ele>24.200000762939</ele>
        <time>2022-10-07T09:25:45Z</time>
      </trkpt>
      <trkpt lat="48.74286" lon="-4.03526">
        <ele>22.799999237061</ele>
        <time>2022-10-07T09:26:02Z</time>
      </trkpt>
      <trkpt lat="48.74286" lon="-4.03529">
        <ele>23</ele>
        <time>2022-10-07T09:26:20Z</time>
      </trkpt>
      <trkpt lat="48.74289" lon="-4.03537">
        <ele>23.39999961853</ele>
        <time>2022-10-07T09:27:14Z</time>
      </trkpt>
      <trkpt lat="48.7429" lon="-4.03541">
        <ele>22.60000038147</ele>
        <time>2022-10-07T09:27:38Z</time>
      </trkpt>
      <trkpt lat="48.7429" lon="-4.03538">
        <ele>22.39999961853</ele>
        <time>2022-10-07T09:28:02Z</time>
      </trkpt>
      <trkpt lat="48.74294" lon="-4.03536">
        <ele>24.39999961853</ele>
        <time>2022-10-07T09:28:23Z</time>
      </trkpt>
      <trkpt lat="48.743" lon="-4.03544">
        <ele>24</ele>
        <time>2022-10-07T09:28:39Z</time>
      </trkpt>
      <trkpt lat="48.74296" lon="-4.03544">
        <ele>22.799999237061</ele>
        <time>2022-10-07T09:30:00Z</time>
      </trkpt>
      <trkpt lat="48.74292" lon="-4.03541">
        <ele>23.200000762939</ele>
        <time>2022-10-07T09:30:15Z</time>
      </trkpt>
      <trkpt lat="48.74289" lon="-4.03542">
        <ele>22.39999961853</ele>
        <time>2022-10-07T09:30:36Z</time>
      </trkpt>
      <trkpt lat="48.7429" lon="-4.03539">
        <ele>22.60000038147</ele>
        <time>2022-10-07T09:30:59Z</time>
      </trkpt>
      <trkpt lat="48.74289" lon="-4.0354">
        <ele>22.60000038147</ele>
        <time>2022-10-07T09:31:24Z</time>
      </trkpt>
      <trkpt lat="48.74291" lon="-4.03539">
        <ele>23.60000038147</ele>
        <time>2022-10-07T09:32:07Z</time>
      </trkpt>
      <trkpt lat="48.74293" lon="-4.03532">
        <ele>24.60000038147</ele>
        <time>2022-10-07T09:32:20Z</time>
      </trkpt>
      <trkpt lat="48.7429" lon="-4.03538">
        <ele>23.799999237061</ele>
        <time>2022-10-07T09:32:37Z</time>
      </trkpt>
      <trkpt lat="48.74291" lon="-4.0354">
        <ele>24.799999237061</ele>
        <time>2022-10-07T09:32:57Z</time>
      </trkpt>
      <trkpt lat="48.74291" lon="-4.03546">
        <ele>24</ele>
        <time>2022-10-07T09:33:19Z</time>
      </trkpt>
      <trkpt lat="48.74291" lon="-4.03548">
        <ele>23.200000762939</ele>
        <time>2022-10-07T09:33:38Z</time>
      </trkpt>
      <trkpt lat="48.74292" lon="-4.03547">
        <ele>22.799999237061</ele>
        <time>2022-10-07T09:34:02Z</time>
      </trkpt>
      <trkpt lat="48.74293" lon="-4.03549">
        <ele>22.799999237061</ele>
        <time>2022-10-07T09:34:43Z</time>
      </trkpt>
      <trkpt lat="48.74295" lon="-4.03552">
        <ele>23.200000762939</ele>
        <time>2022-10-07T09:35:01Z</time>
      </trkpt>
      <trkpt lat="48.74305" lon="-4.03557">
        <ele>22.200000762939</ele>
        <time>2022-10-07T09:35:18Z</time>
      </trkpt>
      <trkpt lat="48.74306" lon="-4.03558">
        <ele>22</ele>
        <time>2022-10-07T09:35:30Z</time>
      </trkpt>
      <trkpt lat="48.74309" lon="-4.03569">
        <ele>21.799999237061</ele>
        <time>2022-10-07T09:35:51Z</time>
      </trkpt>
      <trkpt lat="48.74315" lon="-4.03597">
        <ele>21.799999237061</ele>
        <time>2022-10-07T09:36:10Z</time>
      </trkpt>
      <trkpt lat="48.74318" lon="-4.03616">
        <ele>20</ele>
        <time>2022-10-07T09:36:29Z</time>
      </trkpt>
      <trkpt lat="48.74318" lon="-4.03619">
        <ele>19.39999961853</ele>
        <time>2022-10-07T09:36:41Z</time>
      </trkpt>
      <trkpt lat="48.74316" lon="-4.03634">
        <ele>18.60000038147</ele>
        <time>2022-10-07T09:37:00Z</time>
      </trkpt>
      <trkpt lat="48.74315" lon="-4.03642">
        <ele>18.39999961853</ele>
        <time>2022-10-07T09:37:06Z</time>
      </trkpt>
      <trkpt lat="48.74325" lon="-4.03671">
        <ele>16.39999961853</ele>
        <time>2022-10-07T09:37:27Z</time>
      </trkpt>
      <trkpt lat="48.74346" lon="-4.03687">
        <ele>15.39999961853</ele>
        <time>2022-10-07T09:37:51Z</time>
      </trkpt>
      <trkpt lat="48.74358" lon="-4.03702">
        <ele>16.799999237061</ele>
        <time>2022-10-07T09:38:09Z</time>
      </trkpt>
      <trkpt lat="48.7436" lon="-4.03708">
        <ele>16.799999237061</ele>
        <time>2022-10-07T09:38:13Z</time>
      </trkpt>
      <trkpt lat="48.74366" lon="-4.03714">
        <ele>16.60000038147</ele>
        <time>2022-10-07T09:38:21Z</time>
      </trkpt>
      <trkpt lat="48.74381" lon="-4.03722">
        <ele>18</ele>
        <time>2022-10-07T09:38:40Z</time>
      </trkpt>
      <trkpt lat="48.74391" lon="-4.03735">
        <ele>18.60000038147</ele>
        <time>2022-10-07T09:38:56Z</time>
      </trkpt>
      <trkpt lat="48.74392" lon="-4.03736">
        <ele>18.60000038147</ele>
        <time>2022-10-07T09:38:57Z</time>
      </trkpt>
      <trkpt lat="48.74399" lon="-4.03738">
        <ele>18.799999237061</ele>
        <time>2022-10-07T09:39:03Z</time>
      </trkpt>
      <trkpt lat="48.74418" lon="-4.03756">
        <ele>17.39999961853</ele>
        <time>2022-10-07T09:39:22Z</time>
      </trkpt>
      <trkpt lat="48.74426" lon="-4.03763">
        <ele>16.799999237061</ele>
        <time>2022-10-07T09:39:32Z</time>
      </trkpt>
      <trkpt lat="48.74431" lon="-4.03767">
        <ele>16.60000038147</ele>
        <time>2022-10-07T09:39:37Z</time>
      </trkpt>
      <trkpt lat="48.74456" lon="-4.03787">
        <ele>16</ele>
        <time>2022-10-07T09:40:00Z</time>
      </trkpt>
      <trkpt lat="48.74479" lon="-4.03806">
        <ele>17</ele>
        <time>2022-10-07T09:40:20Z</time>
      </trkpt>
      <trkpt lat="48.74492" lon="-4.03829">
        <ele>16.799999237061</ele>
        <time>2022-10-07T09:40:38Z</time>
      </trkpt>
      <trkpt lat="48.74501" lon="-4.03857">
        <ele>16</ele>
        <time>2022-10-07T09:40:57Z</time>
      </trkpt>
      <trkpt lat="48.7451" lon="-4.03887">
        <ele>15.39999961853</ele>
        <time>2022-10-07T09:41:18Z</time>
      </trkpt>
      <trkpt lat="48.74514" lon="-4.03896">
        <ele>15.39999961853</ele>
        <time>2022-10-07T09:41:25Z</time>
      </trkpt>
      <trkpt lat="48.74521" lon="-4.03933">
        <ele>15.60000038147</ele>
        <time>2022-10-07T09:41:48Z</time>
      </trkpt>
      <trkpt lat="48.74525" lon="-4.03967">
        <ele>15.60000038147</ele>
        <time>2022-10-07T09:42:09Z</time>
      </trkpt>
      <trkpt lat="48.74533" lon="-4.03988">
        <ele>15</ele>
        <time>2022-10-07T09:42:29Z</time>
      </trkpt>
      <trkpt lat="48.74534" lon="-4.03985">
        <ele>15</ele>
        <time>2022-10-07T09:42:48Z</time>
      </trkpt>
      <trkpt lat="48.74533" lon="-4.03982">
        <ele>15.60000038147</ele>
        <time>2022-10-07T09:43:01Z</time>
      </trkpt>
      <trkpt lat="48.74535" lon="-4.03972">
        <ele>15.60000038147</ele>
        <time>2022-10-07T09:43:08Z</time>
      </trkpt>
      <trkpt lat="48.74537" lon="-4.03949">
        <ele>15.800000190735</ele>
        <time>2022-10-07T09:43:26Z</time>
      </trkpt>
      <trkpt lat="48.7454" lon="-4.03943">
        <ele>16.799999237061</ele>
        <time>2022-10-07T09:43:45Z</time>
      </trkpt>
      <trkpt lat="48.74538" lon="-4.03946">
        <ele>15.800000190735</ele>
        <time>2022-10-07T09:44:13Z</time>
      </trkpt>
      <trkpt lat="48.74538" lon="-4.03946">
        <ele>16.60000038147</ele>
        <time>2022-10-07T09:44:57Z</time>
      </trkpt>
      <trkpt lat="48.74531" lon="-4.03956">
        <ele>15.60000038147</ele>
        <time>2022-10-07T09:45:13Z</time>
      </trkpt>
      <trkpt lat="48.74534" lon="-4.03965">
        <ele>15.39999961853</ele>
        <time>2022-10-07T09:45:31Z</time>
      </trkpt>
      <trkpt lat="48.7454" lon="-4.03971">
        <ele>15.800000190735</ele>
        <time>2022-10-07T09:45:50Z</time>
      </trkpt>
      <trkpt lat="48.74542" lon="-4.03972">
        <ele>15.800000190735</ele>
        <time>2022-10-07T09:45:53Z</time>
      </trkpt>
      <trkpt lat="48.74562" lon="-4.03984">
        <ele>16</ele>
        <time>2022-10-07T09:46:13Z</time>
      </trkpt>
      <trkpt lat="48.74573" lon="-4.03988">
        <ele>16.60000038147</ele>
        <time>2022-10-07T09:46:30Z</time>
      </trkpt>
      <trkpt lat="48.74584" lon="-4.03986">
        <ele>16.60000038147</ele>
        <time>2022-10-07T09:46:54Z</time>
      </trkpt>
      <trkpt lat="48.74596" lon="-4.0399">
        <ele>16.799999237061</ele>
        <time>2022-10-07T09:47:21Z</time>
      </trkpt>
      <trkpt lat="48.74605" lon="-4.03991">
        <ele>16.200000762939</ele>
        <time>2022-10-07T09:47:37Z</time>
      </trkpt>
      <trkpt lat="48.74614" lon="-4.03986">
        <ele>15.800000190735</ele>
        <time>2022-10-07T09:47:55Z</time>
      </trkpt>
      <trkpt lat="48.74615" lon="-4.03985">
        <ele>15.800000190735</ele>
        <time>2022-10-07T09:47:57Z</time>
      </trkpt>
      <trkpt lat="48.74622" lon="-4.0398">
        <ele>15.60000038147</ele>
        <time>2022-10-07T09:48:04Z</time>
      </trkpt>
      <trkpt lat="48.74638" lon="-4.03963">
        <ele>15</ele>
        <time>2022-10-07T09:48:25Z</time>
      </trkpt>
      <trkpt lat="48.74641" lon="-4.03954">
        <ele>14.800000190735</ele>
        <time>2022-10-07T09:48:40Z</time>
      </trkpt>
      <trkpt lat="48.74643" lon="-4.03951">
        <ele>14.60000038147</ele>
        <time>2022-10-07T09:48:46Z</time>
      </trkpt>
      <trkpt lat="48.74645" lon="-4.03944">
        <ele>14.39999961853</ele>
        <time>2022-10-07T09:48:51Z</time>
      </trkpt>
      <trkpt lat="48.74654" lon="-4.03917">
        <ele>14.39999961853</ele>
        <time>2022-10-07T09:49:09Z</time>
      </trkpt>
      <trkpt lat="48.74664" lon="-4.03888">
        <ele>14.39999961853</ele>
        <time>2022-10-07T09:49:29Z</time>
      </trkpt>
      <trkpt lat="48.74666" lon="-4.03885">
        <ele>14</ele>
        <time>2022-10-07T09:49:47Z</time>
      </trkpt>
      <trkpt lat="48.74671" lon="-4.03872">
        <ele>14</ele>
        <time>2022-10-07T09:49:59Z</time>
      </trkpt>
      <trkpt lat="48.74673" lon="-4.03866">
        <ele>13.800000190735</ele>
        <time>2022-10-07T09:50:06Z</time>
      </trkpt>
      <trkpt lat="48.74683" lon="-4.0384">
        <ele>13.199999809265</ele>
        <time>2022-10-07T09:50:26Z</time>
      </trkpt>
      <trkpt lat="48.74689" lon="-4.03822">
        <ele>13.39999961853</ele>
        <time>2022-10-07T09:50:42Z</time>
      </trkpt>
      <trkpt lat="48.74686" lon="-4.03813">
        <ele>14.60000038147</ele>
        <time>2022-10-07T09:50:59Z</time>
      </trkpt>
      <trkpt lat="48.74681" lon="-4.03806">
        <ele>15.199999809265</ele>
        <time>2022-10-07T09:51:14Z</time>
      </trkpt>
      <trkpt lat="48.74684" lon="-4.03803">
        <ele>15.39999961853</ele>
        <time>2022-10-07T09:51:33Z</time>
      </trkpt>
      <trkpt lat="48.74685" lon="-4.03805">
        <ele>15.800000190735</ele>
        <time>2022-10-07T09:51:52Z</time>
      </trkpt>
      <trkpt lat="48.74685" lon="-4.03806">
        <ele>15.199999809265</ele>
        <time>2022-10-07T09:52:27Z</time>
      </trkpt>
      <trkpt lat="48.74686" lon="-4.03807">
        <ele>15.199999809265</ele>
        <time>2022-10-07T09:53:04Z</time>
      </trkpt>
      <trkpt lat="48.74691" lon="-4.03804">
        <ele>15.199999809265</ele>
        <time>2022-10-07T09:53:38Z</time>
      </trkpt>
      <trkpt lat="48.74691" lon="-4.03803">
        <ele>15.199999809265</ele>
        <time>2022-10-07T09:53:39Z</time>
      </trkpt>
      <trkpt lat="48.74695" lon="-4.03802">
        <ele>15.39999961853</ele>
        <time>2022-10-07T09:53:44Z</time>
      </trkpt>
      <trkpt lat="48.74704" lon="-4.03808">
        <ele>15</ele>
        <time>2022-10-07T09:53:54Z</time>
      </trkpt>
      <trkpt lat="48.74715" lon="-4.03791">
        <ele>14.800000190735</ele>
        <time>2022-10-07T09:54:09Z</time>
      </trkpt>
      <trkpt lat="48.74724" lon="-4.03783">
        <ele>15.60000038147</ele>
        <time>2022-10-07T09:54:18Z</time>
      </trkpt>
      <trkpt lat="48.74742" lon="-4.03773">
        <ele>15.199999809265</ele>
        <time>2022-10-07T09:54:36Z</time>
      </trkpt>
      <trkpt lat="48.74745" lon="-4.0377">
        <ele>15</ele>
        <time>2022-10-07T09:54:40Z</time>
      </trkpt>
      <trkpt lat="48.74762" lon="-4.03748">
        <ele>14.800000190735</ele>
        <time>2022-10-07T09:55:03Z</time>
      </trkpt>
      <trkpt lat="48.74766" lon="-4.03746">
        <ele>14.39999961853</ele>
        <time>2022-10-07T09:55:25Z</time>
      </trkpt>
      <trkpt lat="48.74769" lon="-4.0375">
        <ele>14.39999961853</ele>
        <time>2022-10-07T09:56:03Z</time>
      </trkpt>
      <trkpt lat="48.74784" lon="-4.03737">
        <ele>13.199999809265</ele>
        <time>2022-10-07T09:56:20Z</time>
      </trkpt>
      <trkpt lat="48.74794" lon="-4.03713">
        <ele>12.199999809265</ele>
        <time>2022-10-07T09:56:38Z</time>
      </trkpt>
      <trkpt lat="48.74794" lon="-4.03702">
        <ele>11.800000190735</ele>
        <time>2022-10-07T09:56:45Z</time>
      </trkpt>
      <trkpt lat="48.74799" lon="-4.03688">
        <ele>11.39999961853</ele>
        <time>2022-10-07T09:57:02Z</time>
      </trkpt>
      <trkpt lat="48.74796" lon="-4.03681">
        <ele>10.800000190735</ele>
        <time>2022-10-07T09:57:38Z</time>
      </trkpt>
      <trkpt lat="48.74797" lon="-4.03673">
        <ele>11</ele>
        <time>2022-10-07T09:57:47Z</time>
      </trkpt>
      <trkpt lat="48.74802" lon="-4.0367">
        <ele>10.199999809265</ele>
        <time>2022-10-07T09:58:07Z</time>
      </trkpt>
      <trkpt lat="48.74804" lon="-4.0367">
        <ele>10.199999809265</ele>
        <time>2022-10-07T09:58:26Z</time>
      </trkpt>
      <trkpt lat="48.74802" lon="-4.03674">
        <ele>10</ele>
        <time>2022-10-07T09:59:01Z</time>
      </trkpt>
      <trkpt lat="48.74802" lon="-4.03672">
        <ele>10</ele>
        <time>2022-10-07T09:59:31Z</time>
      </trkpt>
      <trkpt lat="48.74796" lon="-4.0367">
        <ele>10.199999809265</ele>
        <time>2022-10-07T09:59:58Z</time>
      </trkpt>
      <trkpt lat="48.74799" lon="-4.0365">
        <ele>10.60000038147</ele>
        <time>2022-10-07T10:00:15Z</time>
      </trkpt>
      <trkpt lat="48.74802" lon="-4.03627">
        <ele>9.6000003814697</ele>
        <time>2022-10-07T10:00:33Z</time>
      </trkpt>
      <trkpt lat="48.74793" lon="-4.03605">
        <ele>9.3999996185303</ele>
        <time>2022-10-07T10:00:53Z</time>
      </trkpt>
      <trkpt lat="48.74781" lon="-4.03585">
        <ele>9.6000003814697</ele>
        <time>2022-10-07T10:01:14Z</time>
      </trkpt>
      <trkpt lat="48.74778" lon="-4.03581">
        <ele>9.8000001907349</ele>
        <time>2022-10-07T10:01:19Z</time>
      </trkpt>
      <trkpt lat="48.74764" lon="-4.03564">
        <ele>10.800000190735</ele>
        <time>2022-10-07T10:01:41Z</time>
      </trkpt>
      <trkpt lat="48.74754" lon="-4.03549">
        <ele>11</ele>
        <time>2022-10-07T10:02:01Z</time>
      </trkpt>
      <trkpt lat="48.74741" lon="-4.03517">
        <ele>11</ele>
        <time>2022-10-07T10:02:28Z</time>
      </trkpt>
      <trkpt lat="48.7473" lon="-4.03492">
        <ele>10.800000190735</ele>
        <time>2022-10-07T10:02:50Z</time>
      </trkpt>
      <trkpt lat="48.74722" lon="-4.03487">
        <ele>10.39999961853</ele>
        <time>2022-10-07T10:03:04Z</time>
      </trkpt>
      <trkpt lat="48.7472" lon="-4.03484">
        <ele>10.39999961853</ele>
        <time>2022-10-07T10:03:17Z</time>
      </trkpt>
      <trkpt lat="48.74716" lon="-4.03484">
        <ele>11</ele>
        <time>2022-10-07T10:04:54Z</time>
      </trkpt>
      <trkpt lat="48.74704" lon="-4.0348">
        <ele>10.39999961853</ele>
        <time>2022-10-07T10:05:13Z</time>
      </trkpt>
      <trkpt lat="48.747" lon="-4.03477">
        <ele>10.199999809265</ele>
        <time>2022-10-07T10:05:34Z</time>
      </trkpt>
      <trkpt lat="48.74698" lon="-4.03475">
        <ele>10.199999809265</ele>
        <time>2022-10-07T10:05:37Z</time>
      </trkpt>
      <trkpt lat="48.74689" lon="-4.03462">
        <ele>9</ele>
        <time>2022-10-07T10:05:54Z</time>
      </trkpt>
      <trkpt lat="48.74683" lon="-4.03452">
        <ele>8.3999996185303</ele>
        <time>2022-10-07T10:06:03Z</time>
      </trkpt>
      <trkpt lat="48.74676" lon="-4.03425">
        <ele>7.5999999046326</ele>
        <time>2022-10-07T10:06:22Z</time>
      </trkpt>
      <trkpt lat="48.74677" lon="-4.03389">
        <ele>7.1999998092651</ele>
        <time>2022-10-07T10:06:45Z</time>
      </trkpt>
      <trkpt lat="48.74677" lon="-4.03361">
        <ele>7.1999998092651</ele>
        <time>2022-10-07T10:07:01Z</time>
      </trkpt>
      <trkpt lat="48.74678" lon="-4.03353">
        <ele>7.4000000953674</ele>
        <time>2022-10-07T10:07:20Z</time>
      </trkpt>
      <trkpt lat="48.7468" lon="-4.03342">
        <ele>7.4000000953674</ele>
        <time>2022-10-07T10:08:43Z</time>
      </trkpt>
      <trkpt lat="48.74686" lon="-4.03314">
        <ele>7.1999998092651</ele>
        <time>2022-10-07T10:09:05Z</time>
      </trkpt>
      <trkpt lat="48.74699" lon="-4.03296">
        <ele>8.8000001907349</ele>
        <time>2022-10-07T10:09:27Z</time>
      </trkpt>
      <trkpt lat="48.74712" lon="-4.03268">
        <ele>9.6000003814697</ele>
        <time>2022-10-07T10:09:48Z</time>
      </trkpt>
      <trkpt lat="48.74719" lon="-4.03246">
        <ele>9.3999996185303</ele>
        <time>2022-10-07T10:10:05Z</time>
      </trkpt>
      <trkpt lat="48.74723" lon="-4.03237">
        <ele>9.8000001907349</ele>
        <time>2022-10-07T10:10:23Z</time>
      </trkpt>
      <trkpt lat="48.74736" lon="-4.03218">
        <ele>9.3999996185303</ele>
        <time>2022-10-07T10:10:48Z</time>
      </trkpt>
      <trkpt lat="48.74738" lon="-4.03214">
        <ele>9.3999996185303</ele>
        <time>2022-10-07T10:10:53Z</time>
      </trkpt>
      <trkpt lat="48.74742" lon="-4.03209">
        <ele>9.1999998092651</ele>
        <time>2022-10-07T10:10:59Z</time>
      </trkpt>
      <trkpt lat="48.74759" lon="-4.03187">
        <ele>9</ele>
        <time>2022-10-07T10:11:23Z</time>
      </trkpt>
      <trkpt lat="48.74767" lon="-4.03176">
        <ele>9.1999998092651</ele>
        <time>2022-10-07T10:11:45Z</time>
      </trkpt>
      <trkpt lat="48.74768" lon="-4.03178">
        <ele>9.3999996185303</ele>
        <time>2022-10-07T10:12:07Z</time>
      </trkpt>
      <trkpt lat="48.74772" lon="-4.03179">
        <ele>9.3999996185303</ele>
        <time>2022-10-07T10:12:20Z</time>
      </trkpt>
      <trkpt lat="48.74777" lon="-4.03176">
        <ele>9.3999996185303</ele>
        <time>2022-10-07T10:12:25Z</time>
      </trkpt>
      <trkpt lat="48.74796" lon="-4.03162">
        <ele>9.3999996185303</ele>
        <time>2022-10-07T10:12:47Z</time>
      </trkpt>
      <trkpt lat="48.7481" lon="-4.03156">
        <ele>10.800000190735</ele>
        <time>2022-10-07T10:13:04Z</time>
      </trkpt>
      <trkpt lat="48.74817" lon="-4.03161">
        <ele>12.39999961853</ele>
        <time>2022-10-07T10:13:12Z</time>
      </trkpt>
      <trkpt lat="48.74832" lon="-4.03164">
        <ele>13.60000038147</ele>
        <time>2022-10-07T10:13:30Z</time>
      </trkpt>
      <trkpt lat="48.74842" lon="-4.0317">
        <ele>13.800000190735</ele>
        <time>2022-10-07T10:13:45Z</time>
      </trkpt>
      <trkpt lat="48.74846" lon="-4.0316">
        <ele>13.60000038147</ele>
        <time>2022-10-07T10:14:01Z</time>
      </trkpt>
      <trkpt lat="48.74844" lon="-4.03157">
        <ele>13.60000038147</ele>
        <time>2022-10-07T10:14:16Z</time>
      </trkpt>
      <trkpt lat="48.74845" lon="-4.03143">
        <ele>13.60000038147</ele>
        <time>2022-10-07T10:14:26Z</time>
      </trkpt>
      <trkpt lat="48.74857" lon="-4.03122">
        <ele>13.199999809265</ele>
        <time>2022-10-07T10:14:41Z</time>
      </trkpt>
      <trkpt lat="48.74867" lon="-4.03098">
        <ele>12</ele>
        <time>2022-10-07T10:14:59Z</time>
      </trkpt>
      <trkpt lat="48.74874" lon="-4.03083">
        <ele>11.39999961853</ele>
        <time>2022-10-07T10:15:18Z</time>
      </trkpt>
      <trkpt lat="48.7487" lon="-4.03075">
        <ele>11.39999961853</ele>
        <time>2022-10-07T10:15:35Z</time>
      </trkpt>
      <trkpt lat="48.74868" lon="-4.03069">
        <ele>11.39999961853</ele>
        <time>2022-10-07T10:15:40Z</time>
      </trkpt>
      <trkpt lat="48.74863" lon="-4.03035">
        <ele>10.60000038147</ele>
        <time>2022-10-07T10:16:02Z</time>
      </trkpt>
      <trkpt lat="48.74865" lon="-4.03022">
        <ele>10.800000190735</ele>
        <time>2022-10-07T10:16:20Z</time>
      </trkpt>
      <trkpt lat="48.74867" lon="-4.03005">
        <ele>11.199999809265</ele>
        <time>2022-10-07T10:16:38Z</time>
      </trkpt>
      <trkpt lat="48.7487" lon="-4.02986">
        <ele>11.39999961853</ele>
        <time>2022-10-07T10:16:55Z</time>
      </trkpt>
      <trkpt lat="48.74873" lon="-4.02969">
        <ele>11.60000038147</ele>
        <time>2022-10-07T10:17:10Z</time>
      </trkpt>
      <trkpt lat="48.74884" lon="-4.02937">
        <ele>11.60000038147</ele>
        <time>2022-10-07T10:17:37Z</time>
      </trkpt>
      <trkpt lat="48.74888" lon="-4.02927">
        <ele>11.800000190735</ele>
        <time>2022-10-07T10:17:46Z</time>
      </trkpt>
      <trkpt lat="48.74899" lon="-4.02912">
        <ele>12</ele>
        <time>2022-10-07T10:18:03Z</time>
      </trkpt>
      <trkpt lat="48.74912" lon="-4.02902">
        <ele>12.60000038147</ele>
        <time>2022-10-07T10:18:21Z</time>
      </trkpt>
      <trkpt lat="48.74911" lon="-4.02908">
        <ele>13.60000038147</ele>
        <time>2022-10-07T10:18:43Z</time>
      </trkpt>
      <trkpt lat="48.74915" lon="-4.02903">
        <ele>14.199999809265</ele>
        <time>2022-10-07T10:19:00Z</time>
      </trkpt>
      <trkpt lat="48.74914" lon="-4.02903">
        <ele>15.39999961853</ele>
        <time>2022-10-07T10:19:02Z</time>
      </trkpt>
      <trkpt lat="48.74915" lon="-4.02905">
        <ele>15.199999809265</ele>
        <time>2022-10-07T10:19:14Z</time>
      </trkpt>
      <trkpt lat="48.74914" lon="-4.02903">
        <ele>15</ele>
        <time>2022-10-07T10:19:59Z</time>
      </trkpt>
      <trkpt lat="48.74918" lon="-4.02901">
        <ele>15.199999809265</ele>
        <time>2022-10-07T10:20:25Z</time>
      </trkpt>
      <trkpt lat="48.74918" lon="-4.02902">
        <ele>15.60000038147</ele>
        <time>2022-10-07T10:21:30Z</time>
      </trkpt>
      <trkpt lat="48.74917" lon="-4.02901">
        <ele>15.199999809265</ele>
        <time>2022-10-07T10:22:11Z</time>
      </trkpt>
      <trkpt lat="48.74919" lon="-4.02893">
        <ele>15.800000190735</ele>
        <time>2022-10-07T10:22:51Z</time>
      </trkpt>
      <trkpt lat="48.7492" lon="-4.02888">
        <ele>16.39999961853</ele>
        <time>2022-10-07T10:22:58Z</time>
      </trkpt>
      <trkpt lat="48.74929" lon="-4.02875">
        <ele>16.200000762939</ele>
        <time>2022-10-07T10:23:10Z</time>
      </trkpt>
      <trkpt lat="48.74935" lon="-4.02864">
        <ele>14</ele>
        <time>2022-10-07T10:23:18Z</time>
      </trkpt>
      <trkpt lat="48.74945" lon="-4.02844">
        <ele>13.60000038147</ele>
        <time>2022-10-07T10:23:33Z</time>
      </trkpt>
      <trkpt lat="48.74955" lon="-4.02821">
        <ele>13.199999809265</ele>
        <time>2022-10-07T10:23:48Z</time>
      </trkpt>
      <trkpt lat="48.74958" lon="-4.02817">
        <ele>13.199999809265</ele>
        <time>2022-10-07T10:23:52Z</time>
      </trkpt>
      <trkpt lat="48.74963" lon="-4.02794">
        <ele>13.60000038147</ele>
        <time>2022-10-07T10:24:07Z</time>
      </trkpt>
      <trkpt lat="48.7497" lon="-4.02773">
        <ele>13.60000038147</ele>
        <time>2022-10-07T10:24:21Z</time>
      </trkpt>
      <trkpt lat="48.74986" lon="-4.02753">
        <ele>13.39999961853</ele>
        <time>2022-10-07T10:24:39Z</time>
      </trkpt>
      <trkpt lat="48.74992" lon="-4.02747">
        <ele>13.39999961853</ele>
        <time>2022-10-07T10:24:57Z</time>
      </trkpt>
      <trkpt lat="48.75" lon="-4.02733">
        <ele>13.39999961853</ele>
        <time>2022-10-07T10:25:15Z</time>
      </trkpt>
      <trkpt lat="48.75001" lon="-4.02727">
        <ele>13.199999809265</ele>
        <time>2022-10-07T10:25:21Z</time>
      </trkpt>
      <trkpt lat="48.75009" lon="-4.02724">
        <ele>12.39999961853</ele>
        <time>2022-10-07T10:25:39Z</time>
      </trkpt>
      <trkpt lat="48.75008" lon="-4.02726">
        <ele>11.800000190735</ele>
        <time>2022-10-07T10:26:01Z</time>
      </trkpt>
      <trkpt lat="48.75009" lon="-4.02724">
        <ele>11.60000038147</ele>
        <time>2022-10-07T10:26:51Z</time>
      </trkpt>
      <trkpt lat="48.75009" lon="-4.02724">
        <ele>12</ele>
        <time>2022-10-07T10:27:28Z</time>
      </trkpt>
      <trkpt lat="48.75001" lon="-4.02728">
        <ele>12</ele>
        <time>2022-10-07T10:28:00Z</time>
      </trkpt>
      <trkpt lat="48.75" lon="-4.02722">
        <ele>12</ele>
        <time>2022-10-07T10:28:06Z</time>
      </trkpt>
      <trkpt lat="48.74999" lon="-4.02704">
        <ele>12.60000038147</ele>
        <time>2022-10-07T10:28:19Z</time>
      </trkpt>
      <trkpt lat="48.74986" lon="-4.02695">
        <ele>12</ele>
        <time>2022-10-07T10:28:38Z</time>
      </trkpt>
      <trkpt lat="48.74968" lon="-4.02683">
        <ele>12.60000038147</ele>
        <time>2022-10-07T10:28:59Z</time>
      </trkpt>
      <trkpt lat="48.74951" lon="-4.02671">
        <ele>11.39999961853</ele>
        <time>2022-10-07T10:29:18Z</time>
      </trkpt>
      <trkpt lat="48.74935" lon="-4.02669">
        <ele>11.60000038147</ele>
        <time>2022-10-07T10:29:35Z</time>
      </trkpt>
      <trkpt lat="48.74918" lon="-4.02665">
        <ele>11.800000190735</ele>
        <time>2022-10-07T10:29:54Z</time>
      </trkpt>
      <trkpt lat="48.74915" lon="-4.02664">
        <ele>11.800000190735</ele>
        <time>2022-10-07T10:29:56Z</time>
      </trkpt>
      <trkpt lat="48.74907" lon="-4.02652">
        <ele>11.60000038147</ele>
        <time>2022-10-07T10:30:11Z</time>
      </trkpt>
      <trkpt lat="48.74921" lon="-4.02647">
        <ele>9.3999996185303</ele>
        <time>2022-10-07T10:30:31Z</time>
      </trkpt>
      <trkpt lat="48.74928" lon="-4.02654">
        <ele>8.6000003814697</ele>
        <time>2022-10-07T10:30:50Z</time>
      </trkpt>
      <trkpt lat="48.7493" lon="-4.02652">
        <ele>8.6000003814697</ele>
        <time>2022-10-07T10:31:56Z</time>
      </trkpt>
      <trkpt lat="48.74931" lon="-4.0265">
        <ele>9</ele>
        <time>2022-10-07T10:35:00Z</time>
      </trkpt>
      <trkpt lat="48.7493" lon="-4.02652">
        <ele>8.1999998092651</ele>
        <time>2022-10-07T10:35:24Z</time>
      </trkpt>
      <trkpt lat="48.74929" lon="-4.02651">
        <ele>8.3999996185303</ele>
        <time>2022-10-07T10:36:48Z</time>
      </trkpt>
      <trkpt lat="48.74929" lon="-4.02651">
        <ele>8.1999998092651</ele>
        <time>2022-10-07T10:38:01Z</time>
      </trkpt>
      <trkpt lat="48.7493" lon="-4.0265">
        <ele>8.3999996185303</ele>
        <time>2022-10-07T10:39:05Z</time>
      </trkpt>
      <trkpt lat="48.74929" lon="-4.0265">
        <ele>8.8000001907349</ele>
        <time>2022-10-07T10:39:59Z</time>
      </trkpt>
      <trkpt lat="48.74928" lon="-4.02651">
        <ele>8.8000001907349</ele>
        <time>2022-10-07T10:40:43Z</time>
      </trkpt>
      <trkpt lat="48.74929" lon="-4.02651">
        <ele>8.6000003814697</ele>
        <time>2022-10-07T10:41:34Z</time>
      </trkpt>
      <trkpt lat="48.74929" lon="-4.02651">
        <ele>8.6000003814697</ele>
        <time>2022-10-07T10:42:35Z</time>
      </trkpt>
      <trkpt lat="48.74931" lon="-4.02653">
        <ele>8.8000001907349</ele>
        <time>2022-10-07T10:43:36Z</time>
      </trkpt>
      <trkpt lat="48.74931" lon="-4.02651">
        <ele>8.8000001907349</ele>
        <time>2022-10-07T10:44:29Z</time>
      </trkpt>
      <trkpt lat="48.74932" lon="-4.02649">
        <ele>8.8000001907349</ele>
        <time>2022-10-07T10:45:33Z</time>
      </trkpt>
      <trkpt lat="48.74931" lon="-4.02648">
        <ele>8.8000001907349</ele>
        <time>2022-10-07T10:46:36Z</time>
      </trkpt>
      <trkpt lat="48.74929" lon="-4.02648">
        <ele>8.6000003814697</ele>
        <time>2022-10-07T10:47:44Z</time>
      </trkpt>
      <trkpt lat="48.74929" lon="-4.02649">
        <ele>8.6000003814697</ele>
        <time>2022-10-07T10:48:54Z</time>
      </trkpt>
      <trkpt lat="48.74929" lon="-4.02649">
        <ele>8.3999996185303</ele>
        <time>2022-10-07T10:49:49Z</time>
      </trkpt>
      <trkpt lat="48.74928" lon="-4.02649">
        <ele>8.6000003814697</ele>
        <time>2022-10-07T10:50:50Z</time>
      </trkpt>
      <trkpt lat="48.7493" lon="-4.02649">
        <ele>8.6000003814697</ele>
        <time>2022-10-07T10:51:56Z</time>
      </trkpt>
      <trkpt lat="48.74928" lon="-4.0265">
        <ele>8.8000001907349</ele>
        <time>2022-10-07T10:53:06Z</time>
      </trkpt>
      <trkpt lat="48.74928" lon="-4.0265">
        <ele>9</ele>
        <time>2022-10-07T10:53:57Z</time>
      </trkpt>
      <trkpt lat="48.74928" lon="-4.0265">
        <ele>9</ele>
        <time>2022-10-07T10:54:48Z</time>
      </trkpt>
      <trkpt lat="48.74928" lon="-4.02651">
        <ele>8.8000001907349</ele>
        <time>2022-10-07T10:55:33Z</time>
      </trkpt>
      <trkpt lat="48.74927" lon="-4.0265">
        <ele>9</ele>
        <time>2022-10-07T10:56:27Z</time>
      </trkpt>
      <trkpt lat="48.74927" lon="-4.02649">
        <ele>9</ele>
        <time>2022-10-07T10:57:17Z</time>
      </trkpt>
      <trkpt lat="48.74928" lon="-4.0265">
        <ele>9.1999998092651</ele>
        <time>2022-10-07T10:58:13Z</time>
      </trkpt>
      <trkpt lat="48.74926" lon="-4.0265">
        <ele>9.1999998092651</ele>
        <time>2022-10-07T10:59:10Z</time>
      </trkpt>
      <trkpt lat="48.74927" lon="-4.02649">
        <ele>9.1999998092651</ele>
        <time>2022-10-07T11:00:18Z</time>
      </trkpt>
      <trkpt lat="48.74925" lon="-4.0265">
        <ele>9.3999996185303</ele>
        <time>2022-10-07T11:01:31Z</time>
      </trkpt>
      <trkpt lat="48.74926" lon="-4.0265">
        <ele>9.3999996185303</ele>
        <time>2022-10-07T11:02:48Z</time>
      </trkpt>
      <trkpt lat="48.74928" lon="-4.02649">
        <ele>9.6000003814697</ele>
        <time>2022-10-07T11:03:42Z</time>
      </trkpt>
      <trkpt lat="48.74928" lon="-4.02648">
        <ele>9.3999996185303</ele>
        <time>2022-10-07T11:04:35Z</time>
      </trkpt>
      <trkpt lat="48.74928" lon="-4.02648">
        <ele>9.8000001907349</ele>
        <time>2022-10-07T11:05:35Z</time>
      </trkpt>
      <trkpt lat="48.74928" lon="-4.02649">
        <ele>9.8000001907349</ele>
        <time>2022-10-07T11:06:43Z</time>
      </trkpt>
      <trkpt lat="48.74927" lon="-4.02653">
        <ele>10.39999961853</ele>
        <time>2022-10-07T11:07:18Z</time>
      </trkpt>
      <trkpt lat="48.74927" lon="-4.02652">
        <ele>10.60000038147</ele>
        <time>2022-10-07T11:07:55Z</time>
      </trkpt>
      <trkpt lat="48.74917" lon="-4.02649">
        <ele>11</ele>
        <time>2022-10-07T11:08:27Z</time>
      </trkpt>
      <trkpt lat="48.74903" lon="-4.02639">
        <ele>13.199999809265</ele>
        <time>2022-10-07T11:08:53Z</time>
      </trkpt>
      <trkpt lat="48.74904" lon="-4.02636">
        <ele>13.39999961853</ele>
        <time>2022-10-07T11:08:55Z</time>
      </trkpt>
      <trkpt lat="48.74905" lon="-4.0263">
        <ele>13.60000038147</ele>
        <time>2022-10-07T11:08:59Z</time>
      </trkpt>
      <trkpt lat="48.74907" lon="-4.02598">
        <ele>13.39999961853</ele>
        <time>2022-10-07T11:09:19Z</time>
      </trkpt>
      <trkpt lat="48.74908" lon="-4.02568">
        <ele>13.60000038147</ele>
        <time>2022-10-07T11:09:37Z</time>
      </trkpt>
      <trkpt lat="48.7491" lon="-4.0255">
        <ele>13.800000190735</ele>
        <time>2022-10-07T11:09:52Z</time>
      </trkpt>
      <trkpt lat="48.74911" lon="-4.02546">
        <ele>13.800000190735</ele>
        <time>2022-10-07T11:09:56Z</time>
      </trkpt>
      <trkpt lat="48.74911" lon="-4.02539">
        <ele>13.800000190735</ele>
        <time>2022-10-07T11:10:01Z</time>
      </trkpt>
      <trkpt lat="48.74911" lon="-4.02527">
        <ele>13.800000190735</ele>
        <time>2022-10-07T11:10:08Z</time>
      </trkpt>
      <trkpt lat="48.74913" lon="-4.02498">
        <ele>14</ele>
        <time>2022-10-07T11:10:26Z</time>
      </trkpt>
      <trkpt lat="48.74918" lon="-4.02493">
        <ele>14</ele>
        <time>2022-10-07T11:10:31Z</time>
      </trkpt>
      <trkpt lat="48.74927" lon="-4.02493">
        <ele>13.800000190735</ele>
        <time>2022-10-07T11:10:47Z</time>
      </trkpt>
      <trkpt lat="48.74935" lon="-4.02491">
        <ele>14</ele>
        <time>2022-10-07T11:10:58Z</time>
      </trkpt>
      <trkpt lat="48.74943" lon="-4.02485">
        <ele>14.39999961853</ele>
        <time>2022-10-07T11:11:07Z</time>
      </trkpt>
      <trkpt lat="48.74958" lon="-4.02476">
        <ele>15</ele>
        <time>2022-10-07T11:11:24Z</time>
      </trkpt>
      <trkpt lat="48.74959" lon="-4.02476">
        <ele>15</ele>
        <time>2022-10-07T11:11:25Z</time>
      </trkpt>
      <trkpt lat="48.74962" lon="-4.02474">
        <ele>15.199999809265</ele>
        <time>2022-10-07T11:11:28Z</time>
      </trkpt>
      <trkpt lat="48.7498" lon="-4.02471">
        <ele>16</ele>
        <time>2022-10-07T11:11:47Z</time>
      </trkpt>
      <trkpt lat="48.74994" lon="-4.02466">
        <ele>16.39999961853</ele>
        <time>2022-10-07T11:12:04Z</time>
      </trkpt>
      <trkpt lat="48.75011" lon="-4.02461">
        <ele>17.60000038147</ele>
        <time>2022-10-07T11:12:22Z</time>
      </trkpt>
      <trkpt lat="48.75015" lon="-4.02458">
        <ele>17.799999237061</ele>
        <time>2022-10-07T11:12:26Z</time>
      </trkpt>
      <trkpt lat="48.75029" lon="-4.02444">
        <ele>17.60000038147</ele>
        <time>2022-10-07T11:12:42Z</time>
      </trkpt>
      <trkpt lat="48.75044" lon="-4.02433">
        <ele>16.60000038147</ele>
        <time>2022-10-07T11:12:58Z</time>
      </trkpt>
      <trkpt lat="48.75048" lon="-4.02431">
        <ele>16.200000762939</ele>
        <time>2022-10-07T11:13:03Z</time>
      </trkpt>
      <trkpt lat="48.75061" lon="-4.02427">
        <ele>15.60000038147</ele>
        <time>2022-10-07T11:13:17Z</time>
      </trkpt>
      <trkpt lat="48.75072" lon="-4.0242">
        <ele>15.39999961853</ele>
        <time>2022-10-07T11:13:34Z</time>
      </trkpt>
      <trkpt lat="48.75076" lon="-4.02418">
        <ele>15.800000190735</ele>
        <time>2022-10-07T11:13:46Z</time>
      </trkpt>
      <trkpt lat="48.7508" lon="-4.02415">
        <ele>15.800000190735</ele>
        <time>2022-10-07T11:13:52Z</time>
      </trkpt>
      <trkpt lat="48.75092" lon="-4.02403">
        <ele>15</ele>
        <time>2022-10-07T11:14:05Z</time>
      </trkpt>
      <trkpt lat="48.75112" lon="-4.02395">
        <ele>15.39999961853</ele>
        <time>2022-10-07T11:14:22Z</time>
      </trkpt>
      <trkpt lat="48.75127" lon="-4.02383">
        <ele>15.39999961853</ele>
        <time>2022-10-07T11:14:37Z</time>
      </trkpt>
      <trkpt lat="48.75135" lon="-4.0237">
        <ele>15.39999961853</ele>
        <time>2022-10-07T11:14:52Z</time>
      </trkpt>
      <trkpt lat="48.75146" lon="-4.02347">
        <ele>15.60000038147</ele>
        <time>2022-10-07T11:15:10Z</time>
      </trkpt>
      <trkpt lat="48.75159" lon="-4.0234">
        <ele>15</ele>
        <time>2022-10-07T11:15:26Z</time>
      </trkpt>
      <trkpt lat="48.75176" lon="-4.02332">
        <ele>15.199999809265</ele>
        <time>2022-10-07T11:15:42Z</time>
      </trkpt>
      <trkpt lat="48.75177" lon="-4.0233">
        <ele>15.199999809265</ele>
        <time>2022-10-07T11:15:44Z</time>
      </trkpt>
      <trkpt lat="48.75183" lon="-4.02324">
        <ele>15.199999809265</ele>
        <time>2022-10-07T11:15:51Z</time>
      </trkpt>
      <trkpt lat="48.75201" lon="-4.02309">
        <ele>16.200000762939</ele>
        <time>2022-10-07T11:16:12Z</time>
      </trkpt>
      <trkpt lat="48.7522" lon="-4.02299">
        <ele>16.799999237061</ele>
        <time>2022-10-07T11:16:36Z</time>
      </trkpt>
      <trkpt lat="48.75246" lon="-4.02284">
        <ele>17.799999237061</ele>
        <time>2022-10-07T11:17:03Z</time>
      </trkpt>
      <trkpt lat="48.75262" lon="-4.02276">
        <ele>18.60000038147</ele>
        <time>2022-10-07T11:17:21Z</time>
      </trkpt>
      <trkpt lat="48.75273" lon="-4.02263">
        <ele>18.60000038147</ele>
        <time>2022-10-07T11:17:36Z</time>
      </trkpt>
      <trkpt lat="48.75284" lon="-4.02241">
        <ele>18.200000762939</ele>
        <time>2022-10-07T11:17:53Z</time>
      </trkpt>
      <trkpt lat="48.7528" lon="-4.02219">
        <ele>17.60000038147</ele>
        <time>2022-10-07T11:18:12Z</time>
      </trkpt>
      <trkpt lat="48.75275" lon="-4.0222">
        <ele>17.39999961853</ele>
        <time>2022-10-07T11:18:25Z</time>
      </trkpt>
      <trkpt lat="48.75274" lon="-4.0222">
        <ele>18.200000762939</ele>
        <time>2022-10-07T11:18:51Z</time>
      </trkpt>
      <trkpt lat="48.75274" lon="-4.02217">
        <ele>18.200000762939</ele>
        <time>2022-10-07T11:19:09Z</time>
      </trkpt>
      <trkpt lat="48.75275" lon="-4.02217">
        <ele>18.200000762939</ele>
        <time>2022-10-07T11:20:21Z</time>
      </trkpt>
      <trkpt lat="48.75285" lon="-4.02215">
        <ele>18</ele>
        <time>2022-10-07T11:20:39Z</time>
      </trkpt>
      <trkpt lat="48.75286" lon="-4.02206">
        <ele>17.39999961853</ele>
        <time>2022-10-07T11:20:55Z</time>
      </trkpt>
      <trkpt lat="48.75286" lon="-4.02174">
        <ele>17.60000038147</ele>
        <time>2022-10-07T11:21:15Z</time>
      </trkpt>
      <trkpt lat="48.75294" lon="-4.02144">
        <ele>18.39999961853</ele>
        <time>2022-10-07T11:21:35Z</time>
      </trkpt>
      <trkpt lat="48.75304" lon="-4.02112">
        <ele>19.60000038147</ele>
        <time>2022-10-07T11:21:56Z</time>
      </trkpt>
      <trkpt lat="48.75302" lon="-4.02087">
        <ele>20</ele>
        <time>2022-10-07T11:22:13Z</time>
      </trkpt>
      <trkpt lat="48.75303" lon="-4.02079">
        <ele>19.799999237061</ele>
        <time>2022-10-07T11:22:18Z</time>
      </trkpt>
      <trkpt lat="48.75293" lon="-4.02044">
        <ele>19.39999961853</ele>
        <time>2022-10-07T11:22:40Z</time>
      </trkpt>
      <trkpt lat="48.75272" lon="-4.02021">
        <ele>18.39999961853</ele>
        <time>2022-10-07T11:23:02Z</time>
      </trkpt>
      <trkpt lat="48.75249" lon="-4.02006">
        <ele>18.200000762939</ele>
        <time>2022-10-07T11:23:25Z</time>
      </trkpt>
      <trkpt lat="48.75226" lon="-4.01986">
        <ele>18</ele>
        <time>2022-10-07T11:23:50Z</time>
      </trkpt>
      <trkpt lat="48.7521" lon="-4.0196">
        <ele>18.200000762939</ele>
        <time>2022-10-07T11:24:12Z</time>
      </trkpt>
      <trkpt lat="48.75194" lon="-4.01947">
        <ele>17.60000038147</ele>
        <time>2022-10-07T11:24:30Z</time>
      </trkpt>
      <trkpt lat="48.75185" lon="-4.01928">
        <ele>18.799999237061</ele>
        <time>2022-10-07T11:24:48Z</time>
      </trkpt>
      <trkpt lat="48.75183" lon="-4.01913">
        <ele>19</ele>
        <time>2022-10-07T11:25:01Z</time>
      </trkpt>
      <trkpt lat="48.75178" lon="-4.01904">
        <ele>18.60000038147</ele>
        <time>2022-10-07T11:25:09Z</time>
      </trkpt>
      <trkpt lat="48.75171" lon="-4.01872">
        <ele>19</ele>
        <time>2022-10-07T11:25:30Z</time>
      </trkpt>
      <trkpt lat="48.75175" lon="-4.0184">
        <ele>19.200000762939</ele>
        <time>2022-10-07T11:25:49Z</time>
      </trkpt>
      <trkpt lat="48.75175" lon="-4.01804">
        <ele>19.200000762939</ele>
        <time>2022-10-07T11:26:09Z</time>
      </trkpt>
      <trkpt lat="48.75176" lon="-4.01772">
        <ele>19.200000762939</ele>
        <time>2022-10-07T11:26:27Z</time>
      </trkpt>
      <trkpt lat="48.75178" lon="-4.01748">
        <ele>19.200000762939</ele>
        <time>2022-10-07T11:26:42Z</time>
      </trkpt>
      <trkpt lat="48.75182" lon="-4.01717">
        <ele>19.60000038147</ele>
        <time>2022-10-07T11:27:00Z</time>
      </trkpt>
      <trkpt lat="48.75182" lon="-4.01712">
        <ele>19.39999961853</ele>
        <time>2022-10-07T11:27:03Z</time>
      </trkpt>
      <trkpt lat="48.7519" lon="-4.01679">
        <ele>19.60000038147</ele>
        <time>2022-10-07T11:27:24Z</time>
      </trkpt>
      <trkpt lat="48.75191" lon="-4.01671">
        <ele>19.39999961853</ele>
        <time>2022-10-07T11:27:30Z</time>
      </trkpt>
      <trkpt lat="48.75195" lon="-4.01645">
        <ele>19.39999961853</ele>
        <time>2022-10-07T11:27:46Z</time>
      </trkpt>
      <trkpt lat="48.7519" lon="-4.01633">
        <ele>18.799999237061</ele>
        <time>2022-10-07T11:28:03Z</time>
      </trkpt>
      <trkpt lat="48.75187" lon="-4.01632">
        <ele>20</ele>
        <time>2022-10-07T11:28:32Z</time>
      </trkpt>
      <trkpt lat="48.75189" lon="-4.01631">
        <ele>20.200000762939</ele>
        <time>2022-10-07T11:29:13Z</time>
      </trkpt>
      <trkpt lat="48.75189" lon="-4.01632">
        <ele>20.200000762939</ele>
        <time>2022-10-07T11:29:46Z</time>
      </trkpt>
      <trkpt lat="48.75191" lon="-4.01631">
        <ele>20.39999961853</ele>
        <time>2022-10-07T11:30:26Z</time>
      </trkpt>
      <trkpt lat="48.75192" lon="-4.01629">
        <ele>20.39999961853</ele>
        <time>2022-10-07T11:30:48Z</time>
      </trkpt>
      <trkpt lat="48.75189" lon="-4.01631">
        <ele>20.60000038147</ele>
        <time>2022-10-07T11:31:06Z</time>
      </trkpt>
      <trkpt lat="48.75187" lon="-4.01635">
        <ele>21</ele>
        <time>2022-10-07T11:31:39Z</time>
      </trkpt>
      <trkpt lat="48.75191" lon="-4.01631">
        <ele>20.60000038147</ele>
        <time>2022-10-07T11:32:02Z</time>
      </trkpt>
      <trkpt lat="48.75191" lon="-4.01622">
        <ele>20.200000762939</ele>
        <time>2022-10-07T11:32:07Z</time>
      </trkpt>
      <trkpt lat="48.75192" lon="-4.01618">
        <ele>19.799999237061</ele>
        <time>2022-10-07T11:32:10Z</time>
      </trkpt>
      <trkpt lat="48.75193" lon="-4.01582">
        <ele>19.200000762939</ele>
        <time>2022-10-07T11:32:32Z</time>
      </trkpt>
      <trkpt lat="48.75193" lon="-4.01542">
        <ele>19.60000038147</ele>
        <time>2022-10-07T11:32:58Z</time>
      </trkpt>
      <trkpt lat="48.75195" lon="-4.01514">
        <ele>19.799999237061</ele>
        <time>2022-10-07T11:33:18Z</time>
      </trkpt>
      <trkpt lat="48.75203" lon="-4.01483">
        <ele>20</ele>
        <time>2022-10-07T11:33:40Z</time>
      </trkpt>
      <trkpt lat="48.75207" lon="-4.01473">
        <ele>20</ele>
        <time>2022-10-07T11:33:50Z</time>
      </trkpt>
      <trkpt lat="48.7521" lon="-4.01466">
        <ele>20</ele>
        <time>2022-10-07T11:33:55Z</time>
      </trkpt>
      <trkpt lat="48.7522" lon="-4.01446">
        <ele>20.200000762939</ele>
        <time>2022-10-07T11:34:15Z</time>
      </trkpt>
      <trkpt lat="48.75237" lon="-4.01412">
        <ele>20</ele>
        <time>2022-10-07T11:34:40Z</time>
      </trkpt>
      <trkpt lat="48.75251" lon="-4.01383">
        <ele>19.60000038147</ele>
        <time>2022-10-07T11:35:00Z</time>
      </trkpt>
      <trkpt lat="48.75265" lon="-4.0136">
        <ele>19.60000038147</ele>
        <time>2022-10-07T11:35:20Z</time>
      </trkpt>
      <trkpt lat="48.75281" lon="-4.01335">
        <ele>19.799999237061</ele>
        <time>2022-10-07T11:35:41Z</time>
      </trkpt>
      <trkpt lat="48.75293" lon="-4.01313">
        <ele>19.799999237061</ele>
        <time>2022-10-07T11:35:58Z</time>
      </trkpt>
      <trkpt lat="48.75301" lon="-4.01279">
        <ele>19.200000762939</ele>
        <time>2022-10-07T11:36:20Z</time>
      </trkpt>
      <trkpt lat="48.75294" lon="-4.01246">
        <ele>19.39999961853</ele>
        <time>2022-10-07T11:36:42Z</time>
      </trkpt>
      <trkpt lat="48.75283" lon="-4.01237">
        <ele>19.39999961853</ele>
        <time>2022-10-07T11:37:00Z</time>
      </trkpt>
      <trkpt lat="48.75278" lon="-4.01223">
        <ele>19.60000038147</ele>
        <time>2022-10-07T11:37:16Z</time>
      </trkpt>
      <trkpt lat="48.75263" lon="-4.01204">
        <ele>20</ele>
        <time>2022-10-07T11:37:35Z</time>
      </trkpt>
      <trkpt lat="48.75257" lon="-4.01189">
        <ele>20.200000762939</ele>
        <time>2022-10-07T11:37:45Z</time>
      </trkpt>
      <trkpt lat="48.75247" lon="-4.01157">
        <ele>20.60000038147</ele>
        <time>2022-10-07T11:38:08Z</time>
      </trkpt>
      <trkpt lat="48.75238" lon="-4.01129">
        <ele>20.799999237061</ele>
        <time>2022-10-07T11:38:29Z</time>
      </trkpt>
      <trkpt lat="48.75239" lon="-4.01115">
        <ele>20.799999237061</ele>
        <time>2022-10-07T11:38:38Z</time>
      </trkpt>
      <trkpt lat="48.75243" lon="-4.01082">
        <ele>20.60000038147</ele>
        <time>2022-10-07T11:38:59Z</time>
      </trkpt>
      <trkpt lat="48.75249" lon="-4.0105">
        <ele>20.39999961853</ele>
        <time>2022-10-07T11:39:19Z</time>
      </trkpt>
      <trkpt lat="48.75247" lon="-4.01029">
        <ele>20.39999961853</ele>
        <time>2022-10-07T11:39:35Z</time>
      </trkpt>
      <trkpt lat="48.75237" lon="-4.01018">
        <ele>20.60000038147</ele>
        <time>2022-10-07T11:39:52Z</time>
      </trkpt>
      <trkpt lat="48.7524" lon="-4.01">
        <ele>21.60000038147</ele>
        <time>2022-10-07T11:40:10Z</time>
      </trkpt>
      <trkpt lat="48.75238" lon="-4.00976">
        <ele>22.200000762939</ele>
        <time>2022-10-07T11:40:26Z</time>
      </trkpt>
      <trkpt lat="48.75236" lon="-4.00966">
        <ele>22.60000038147</ele>
        <time>2022-10-07T11:40:33Z</time>
      </trkpt>
      <trkpt lat="48.75225" lon="-4.00943">
        <ele>23.39999961853</ele>
        <time>2022-10-07T11:40:54Z</time>
      </trkpt>
      <trkpt lat="48.75219" lon="-4.00937">
        <ele>24</ele>
        <time>2022-10-07T11:41:11Z</time>
      </trkpt>
      <trkpt lat="48.75212" lon="-4.00946">
        <ele>24.799999237061</ele>
        <time>2022-10-07T11:41:25Z</time>
      </trkpt>
      <trkpt lat="48.75213" lon="-4.00951">
        <ele>25.39999961853</ele>
        <time>2022-10-07T11:41:41Z</time>
      </trkpt>
      <trkpt lat="48.75216" lon="-4.00956">
        <ele>25.39999961853</ele>
        <time>2022-10-07T11:41:56Z</time>
      </trkpt>
      <trkpt lat="48.75214" lon="-4.00952">
        <ele>25</ele>
        <time>2022-10-07T11:42:11Z</time>
      </trkpt>
      <trkpt lat="48.75215" lon="-4.00948">
        <ele>25</ele>
        <time>2022-10-07T11:42:14Z</time>
      </trkpt>
      <trkpt lat="48.75218" lon="-4.00937">
        <ele>25</ele>
        <time>2022-10-07T11:42:22Z</time>
      </trkpt>
      <trkpt lat="48.75213" lon="-4.00931">
        <ele>24.799999237061</ele>
        <time>2022-10-07T11:42:27Z</time>
      </trkpt>
      <trkpt lat="48.75207" lon="-4.00925">
        <ele>24.60000038147</ele>
        <time>2022-10-07T11:42:34Z</time>
      </trkpt>
      <trkpt lat="48.75206" lon="-4.00919">
        <ele>24.60000038147</ele>
        <time>2022-10-07T11:42:38Z</time>
      </trkpt>
      <trkpt lat="48.75211" lon="-4.00904">
        <ele>24.60000038147</ele>
        <time>2022-10-07T11:43:00Z</time>
      </trkpt>
      <trkpt lat="48.75213" lon="-4.00898">
        <ele>24.60000038147</ele>
        <time>2022-10-07T11:43:04Z</time>
      </trkpt>
      <trkpt lat="48.75218" lon="-4.00881">
        <ele>24.60000038147</ele>
        <time>2022-10-07T11:43:24Z</time>
      </trkpt>
      <trkpt lat="48.75216" lon="-4.00868">
        <ele>24.799999237061</ele>
        <time>2022-10-07T11:43:50Z</time>
      </trkpt>
      <trkpt lat="48.75211" lon="-4.00843">
        <ele>24.60000038147</ele>
        <time>2022-10-07T11:44:06Z</time>
      </trkpt>
      <trkpt lat="48.75208" lon="-4.00831">
        <ele>24.39999961853</ele>
        <time>2022-10-07T11:44:22Z</time>
      </trkpt>
      <trkpt lat="48.75206" lon="-4.00828">
        <ele>24.60000038147</ele>
        <time>2022-10-07T11:45:01Z</time>
      </trkpt>
      <trkpt lat="48.75202" lon="-4.00805">
        <ele>24.799999237061</ele>
        <time>2022-10-07T11:45:18Z</time>
      </trkpt>
      <trkpt lat="48.75198" lon="-4.00793">
        <ele>24.799999237061</ele>
        <time>2022-10-07T11:45:30Z</time>
      </trkpt>
      <trkpt lat="48.75192" lon="-4.00782">
        <ele>24.799999237061</ele>
        <time>2022-10-07T11:45:40Z</time>
      </trkpt>
      <trkpt lat="48.75184" lon="-4.00766">
        <ele>24.200000762939</ele>
        <time>2022-10-07T11:45:56Z</time>
      </trkpt>
      <trkpt lat="48.75164" lon="-4.00735">
        <ele>23.60000038147</ele>
        <time>2022-10-07T11:46:20Z</time>
      </trkpt>
      <trkpt lat="48.75142" lon="-4.00713">
        <ele>22.200000762939</ele>
        <time>2022-10-07T11:46:40Z</time>
      </trkpt>
      <trkpt lat="48.75114" lon="-4.0069">
        <ele>20.799999237061</ele>
        <time>2022-10-07T11:47:06Z</time>
      </trkpt>
      <trkpt lat="48.75095" lon="-4.0067">
        <ele>20.60000038147</ele>
        <time>2022-10-07T11:47:27Z</time>
      </trkpt>
      <trkpt lat="48.75074" lon="-4.0065">
        <ele>20.60000038147</ele>
        <time>2022-10-07T11:47:49Z</time>
      </trkpt>
      <trkpt lat="48.75054" lon="-4.00634">
        <ele>20.200000762939</ele>
        <time>2022-10-07T11:48:10Z</time>
      </trkpt>
      <trkpt lat="48.7503" lon="-4.00619">
        <ele>19.39999961853</ele>
        <time>2022-10-07T11:48:33Z</time>
      </trkpt>
      <trkpt lat="48.75016" lon="-4.00613">
        <ele>18.799999237061</ele>
        <time>2022-10-07T11:48:46Z</time>
      </trkpt>
      <trkpt lat="48.75015" lon="-4.00595">
        <ele>17.799999237061</ele>
        <time>2022-10-07T11:49:03Z</time>
      </trkpt>
      <trkpt lat="48.75015" lon="-4.00588">
        <ele>17.60000038147</ele>
        <time>2022-10-07T11:49:09Z</time>
      </trkpt>
      <trkpt lat="48.75008" lon="-4.00577">
        <ele>17.799999237061</ele>
        <time>2022-10-07T11:49:21Z</time>
      </trkpt>
      <trkpt lat="48.74998" lon="-4.00546">
        <ele>18.799999237061</ele>
        <time>2022-10-07T11:49:44Z</time>
      </trkpt>
      <trkpt lat="48.7499" lon="-4.00517">
        <ele>19</ele>
        <time>2022-10-07T11:50:05Z</time>
      </trkpt>
      <trkpt lat="48.74977" lon="-4.00504">
        <ele>19.200000762939</ele>
        <time>2022-10-07T11:50:27Z</time>
      </trkpt>
      <trkpt lat="48.74977" lon="-4.0051">
        <ele>19.60000038147</ele>
        <time>2022-10-07T11:50:56Z</time>
      </trkpt>
      <trkpt lat="48.74974" lon="-4.00505">
        <ele>19.60000038147</ele>
        <time>2022-10-07T11:51:11Z</time>
      </trkpt>
      <trkpt lat="48.74968" lon="-4.00511">
        <ele>19.799999237061</ele>
        <time>2022-10-07T11:51:33Z</time>
      </trkpt>
      <trkpt lat="48.74967" lon="-4.00513">
        <ele>19.799999237061</ele>
        <time>2022-10-07T11:51:58Z</time>
      </trkpt>
      <trkpt lat="48.74968" lon="-4.00512">
        <ele>20</ele>
        <time>2022-10-07T11:52:39Z</time>
      </trkpt>
      <trkpt lat="48.74971" lon="-4.00512">
        <ele>20</ele>
        <time>2022-10-07T11:53:24Z</time>
      </trkpt>
      <trkpt lat="48.74974" lon="-4.00503">
        <ele>20</ele>
        <time>2022-10-07T11:53:46Z</time>
      </trkpt>
      <trkpt lat="48.74973" lon="-4.00497">
        <ele>20</ele>
        <time>2022-10-07T11:53:52Z</time>
      </trkpt>
      <trkpt lat="48.74959" lon="-4.00494">
        <ele>19.200000762939</ele>
        <time>2022-10-07T11:54:06Z</time>
      </trkpt>
      <trkpt lat="48.74956" lon="-4.00494">
        <ele>19.200000762939</ele>
        <time>2022-10-07T11:54:08Z</time>
      </trkpt>
      <trkpt lat="48.74943" lon="-4.0049">
        <ele>19.200000762939</ele>
        <time>2022-10-07T11:54:20Z</time>
      </trkpt>
      <trkpt lat="48.74919" lon="-4.0048">
        <ele>19.39999961853</ele>
        <time>2022-10-07T11:54:41Z</time>
      </trkpt>
      <trkpt lat="48.74909" lon="-4.00478">
        <ele>19.60000038147</ele>
        <time>2022-10-07T11:54:53Z</time>
      </trkpt>
      <trkpt lat="48.74904" lon="-4.00471">
        <ele>19.799999237061</ele>
        <time>2022-10-07T11:54:58Z</time>
      </trkpt>
      <trkpt lat="48.74897" lon="-4.0046">
        <ele>19.60000038147</ele>
        <time>2022-10-07T11:55:16Z</time>
      </trkpt>
      <trkpt lat="48.74898" lon="-4.00463">
        <ele>19</ele>
        <time>2022-10-07T11:55:38Z</time>
      </trkpt>
      <trkpt lat="48.74888" lon="-4.00447">
        <ele>19.39999961853</ele>
        <time>2022-10-07T11:56:02Z</time>
      </trkpt>
      <trkpt lat="48.74869" lon="-4.00423">
        <ele>19.60000038147</ele>
        <time>2022-10-07T11:56:23Z</time>
      </trkpt>
      <trkpt lat="48.74856" lon="-4.0041">
        <ele>19.60000038147</ele>
        <time>2022-10-07T11:56:40Z</time>
      </trkpt>
      <trkpt lat="48.74841" lon="-4.00405">
        <ele>19.200000762939</ele>
        <time>2022-10-07T11:56:58Z</time>
      </trkpt>
      <trkpt lat="48.7483" lon="-4.00402">
        <ele>21.799999237061</ele>
        <time>2022-10-07T11:57:17Z</time>
      </trkpt>
      <trkpt lat="48.74828" lon="-4.00403">
        <ele>21.799999237061</ele>
        <time>2022-10-07T11:57:31Z</time>
      </trkpt>
      <trkpt lat="48.74824" lon="-4.00401">
        <ele>21.60000038147</ele>
        <time>2022-10-07T11:57:35Z</time>
      </trkpt>
      <trkpt lat="48.74808" lon="-4.00382">
        <ele>20.799999237061</ele>
        <time>2022-10-07T11:57:55Z</time>
      </trkpt>
      <trkpt lat="48.74791" lon="-4.0037">
        <ele>22.60000038147</ele>
        <time>2022-10-07T11:58:14Z</time>
      </trkpt>
      <trkpt lat="48.74786" lon="-4.00359">
        <ele>22.200000762939</ele>
        <time>2022-10-07T11:58:27Z</time>
      </trkpt>
      <trkpt lat="48.74784" lon="-4.00344">
        <ele>22</ele>
        <time>2022-10-07T11:58:36Z</time>
      </trkpt>
      <trkpt lat="48.7478" lon="-4.00311">
        <ele>22.200000762939</ele>
        <time>2022-10-07T11:58:55Z</time>
      </trkpt>
      <trkpt lat="48.74775" lon="-4.00279">
        <ele>21.799999237061</ele>
        <time>2022-10-07T11:59:16Z</time>
      </trkpt>
      <trkpt lat="48.74768" lon="-4.00262">
        <ele>22.60000038147</ele>
        <time>2022-10-07T11:59:29Z</time>
      </trkpt>
      <trkpt lat="48.74759" lon="-4.00249">
        <ele>22.39999961853</ele>
        <time>2022-10-07T11:59:44Z</time>
      </trkpt>
      <trkpt lat="48.74739" lon="-4.00223">
        <ele>22.60000038147</ele>
        <time>2022-10-07T12:00:09Z</time>
      </trkpt>
      <trkpt lat="48.74734" lon="-4.00214">
        <ele>22</ele>
        <time>2022-10-07T12:00:19Z</time>
      </trkpt>
      <trkpt lat="48.74723" lon="-4.00197">
        <ele>22.39999961853</ele>
        <time>2022-10-07T12:00:37Z</time>
      </trkpt>
      <trkpt lat="48.74719" lon="-4.00188">
        <ele>23</ele>
        <time>2022-10-07T12:00:45Z</time>
      </trkpt>
      <trkpt lat="48.74706" lon="-4.00158">
        <ele>23.200000762939</ele>
        <time>2022-10-07T12:01:06Z</time>
      </trkpt>
      <trkpt lat="48.7469" lon="-4.00131">
        <ele>22.200000762939</ele>
        <time>2022-10-07T12:01:27Z</time>
      </trkpt>
      <trkpt lat="48.74688" lon="-4.00129">
        <ele>22.200000762939</ele>
        <time>2022-10-07T12:01:30Z</time>
      </trkpt>
      <trkpt lat="48.74672" lon="-4.00099">
        <ele>23.799999237061</ele>
        <time>2022-10-07T12:01:52Z</time>
      </trkpt>
      <trkpt lat="48.74666" lon="-4.00082">
        <ele>23.60000038147</ele>
        <time>2022-10-07T12:02:05Z</time>
      </trkpt>
      <trkpt lat="48.74663" lon="-4.00077">
        <ele>22.799999237061</ele>
        <time>2022-10-07T12:02:09Z</time>
      </trkpt>
      <trkpt lat="48.74648" lon="-4.00046">
        <ele>20.39999961853</ele>
        <time>2022-10-07T12:02:30Z</time>
      </trkpt>
      <trkpt lat="48.74632" lon="-4.00019">
        <ele>20.200000762939</ele>
        <time>2022-10-07T12:02:53Z</time>
      </trkpt>
      <trkpt lat="48.74616" lon="-4">
        <ele>21.799999237061</ele>
        <time>2022-10-07T12:03:14Z</time>
      </trkpt>
      <trkpt lat="48.74599" lon="-3.99993">
        <ele>22</ele>
        <time>2022-10-07T12:03:32Z</time>
      </trkpt>
      <trkpt lat="48.74583" lon="-3.99969">
        <ele>21</ele>
        <time>2022-10-07T12:03:54Z</time>
      </trkpt>
      <trkpt lat="48.7457" lon="-3.9995">
        <ele>21.200000762939</ele>
        <time>2022-10-07T12:04:12Z</time>
      </trkpt>
      <trkpt lat="48.74562" lon="-3.99926">
        <ele>22.60000038147</ele>
        <time>2022-10-07T12:04:31Z</time>
      </trkpt>
      <trkpt lat="48.7455" lon="-3.99908">
        <ele>21.60000038147</ele>
        <time>2022-10-07T12:04:48Z</time>
      </trkpt>
      <trkpt lat="48.74545" lon="-3.99884">
        <ele>20.799999237061</ele>
        <time>2022-10-07T12:05:04Z</time>
      </trkpt>
      <trkpt lat="48.74542" lon="-3.99878">
        <ele>20.799999237061</ele>
        <time>2022-10-07T12:05:10Z</time>
      </trkpt>
      <trkpt lat="48.74541" lon="-3.99877">
        <ele>20.799999237061</ele>
        <time>2022-10-07T12:05:12Z</time>
      </trkpt>
      <trkpt lat="48.74539" lon="-3.99876">
        <ele>20.60000038147</ele>
        <time>2022-10-07T12:05:14Z</time>
      </trkpt>
      <trkpt lat="48.74532" lon="-3.99881">
        <ele>20.39999961853</ele>
        <time>2022-10-07T12:05:26Z</time>
      </trkpt>
      <trkpt lat="48.7453" lon="-3.99885">
        <ele>20.39999961853</ele>
        <time>2022-10-07T12:05:29Z</time>
      </trkpt>
      <trkpt lat="48.74525" lon="-3.99886">
        <ele>20.39999961853</ele>
        <time>2022-10-07T12:05:34Z</time>
      </trkpt>
      <trkpt lat="48.74516" lon="-3.99877">
        <ele>19.200000762939</ele>
        <time>2022-10-07T12:05:50Z</time>
      </trkpt>
      <trkpt lat="48.74516" lon="-3.99874">
        <ele>19.60000038147</ele>
        <time>2022-10-07T12:05:52Z</time>
      </trkpt>
      <trkpt lat="48.74516" lon="-3.99871">
        <ele>20</ele>
        <time>2022-10-07T12:05:54Z</time>
      </trkpt>
      <trkpt lat="48.74522" lon="-3.99844">
        <ele>21.200000762939</ele>
        <time>2022-10-07T12:06:11Z</time>
      </trkpt>
      <trkpt lat="48.7452" lon="-3.9983">
        <ele>21.200000762939</ele>
        <time>2022-10-07T12:06:20Z</time>
      </trkpt>
      <trkpt lat="48.74522" lon="-3.99823">
        <ele>21.39999961853</ele>
        <time>2022-10-07T12:06:35Z</time>
      </trkpt>
      <trkpt lat="48.74528" lon="-3.99802">
        <ele>21.39999961853</ele>
        <time>2022-10-07T12:06:52Z</time>
      </trkpt>
      <trkpt lat="48.74535" lon="-3.99795">
        <ele>21.60000038147</ele>
        <time>2022-10-07T12:07:11Z</time>
      </trkpt>
      <trkpt lat="48.74531" lon="-3.99793">
        <ele>21.200000762939</ele>
        <time>2022-10-07T12:07:30Z</time>
      </trkpt>
      <trkpt lat="48.7453" lon="-3.99794">
        <ele>21.60000038147</ele>
        <time>2022-10-07T12:07:53Z</time>
      </trkpt>
      <trkpt lat="48.74526" lon="-3.99807">
        <ele>21.39999961853</ele>
        <time>2022-10-07T12:08:11Z</time>
      </trkpt>
      <trkpt lat="48.74524" lon="-3.99816">
        <ele>21.39999961853</ele>
        <time>2022-10-07T12:08:18Z</time>
      </trkpt>
      <trkpt lat="48.74522" lon="-3.99817">
        <ele>21.39999961853</ele>
        <time>2022-10-07T12:08:20Z</time>
      </trkpt>
      <trkpt lat="48.7451" lon="-3.99795">
        <ele>22.60000038147</ele>
        <time>2022-10-07T12:08:38Z</time>
      </trkpt>
      <trkpt lat="48.7451" lon="-3.99794">
        <ele>22.799999237061</ele>
        <time>2022-10-07T12:08:39Z</time>
      </trkpt>
      <trkpt lat="48.74506" lon="-3.99762">
        <ele>24.60000038147</ele>
        <time>2022-10-07T12:08:59Z</time>
      </trkpt>
      <trkpt lat="48.74507" lon="-3.99739">
        <ele>23.60000038147</ele>
        <time>2022-10-07T12:09:15Z</time>
      </trkpt>
      <trkpt lat="48.74509" lon="-3.9972">
        <ele>23.799999237061</ele>
        <time>2022-10-07T12:09:36Z</time>
      </trkpt>
      <trkpt lat="48.74508" lon="-3.9972">
        <ele>24</ele>
        <time>2022-10-07T12:10:25Z</time>
      </trkpt>
      <trkpt lat="48.74503" lon="-3.99708">
        <ele>24</ele>
        <time>2022-10-07T12:10:47Z</time>
      </trkpt>
      <trkpt lat="48.74502" lon="-3.99704">
        <ele>24.39999961853</ele>
        <time>2022-10-07T12:11:30Z</time>
      </trkpt>
      <trkpt lat="48.74501" lon="-3.99698">
        <ele>24.60000038147</ele>
        <time>2022-10-07T12:11:56Z</time>
      </trkpt>
      <trkpt lat="48.74496" lon="-3.99668">
        <ele>24</ele>
        <time>2022-10-07T12:12:16Z</time>
      </trkpt>
      <trkpt lat="48.74491" lon="-3.9964">
        <ele>23.60000038147</ele>
        <time>2022-10-07T12:12:35Z</time>
      </trkpt>
      <trkpt lat="48.74489" lon="-3.9961">
        <ele>23</ele>
        <time>2022-10-07T12:12:54Z</time>
      </trkpt>
      <trkpt lat="48.74488" lon="-3.99588">
        <ele>23</ele>
        <time>2022-10-07T12:13:09Z</time>
      </trkpt>
      <trkpt lat="48.74484" lon="-3.99556">
        <ele>23.39999961853</ele>
        <time>2022-10-07T12:13:29Z</time>
      </trkpt>
      <trkpt lat="48.74483" lon="-3.99554">
        <ele>23.39999961853</ele>
        <time>2022-10-07T12:13:31Z</time>
      </trkpt>
      <trkpt lat="48.74484" lon="-3.99526">
        <ele>23.60000038147</ele>
        <time>2022-10-07T12:13:50Z</time>
      </trkpt>
      <trkpt lat="48.74488" lon="-3.99498">
        <ele>23.200000762939</ele>
        <time>2022-10-07T12:14:11Z</time>
      </trkpt>
      <trkpt lat="48.74496" lon="-3.99473">
        <ele>23.799999237061</ele>
        <time>2022-10-07T12:14:32Z</time>
      </trkpt>
      <trkpt lat="48.745" lon="-3.99464">
        <ele>23.799999237061</ele>
        <time>2022-10-07T12:14:43Z</time>
      </trkpt>
      <trkpt lat="48.74512" lon="-3.99445">
        <ele>23.60000038147</ele>
        <time>2022-10-07T12:14:59Z</time>
      </trkpt>
      <trkpt lat="48.74522" lon="-3.99431">
        <ele>22.799999237061</ele>
        <time>2022-10-07T12:15:14Z</time>
      </trkpt>
      <trkpt lat="48.74528" lon="-3.99417">
        <ele>22.200000762939</ele>
        <time>2022-10-07T12:15:26Z</time>
      </trkpt>
      <trkpt lat="48.74532" lon="-3.9941">
        <ele>22.799999237061</ele>
        <time>2022-10-07T12:15:32Z</time>
      </trkpt>
      <trkpt lat="48.74535" lon="-3.99405">
        <ele>23.200000762939</ele>
        <time>2022-10-07T12:15:36Z</time>
      </trkpt>
      <trkpt lat="48.74542" lon="-3.9937">
        <ele>22.60000038147</ele>
        <time>2022-10-07T12:15:59Z</time>
      </trkpt>
      <trkpt lat="48.74541" lon="-3.99348">
        <ele>21.60000038147</ele>
        <time>2022-10-07T12:16:19Z</time>
      </trkpt>
      <trkpt lat="48.74541" lon="-3.99347">
        <ele>21.60000038147</ele>
        <time>2022-10-07T12:16:23Z</time>
      </trkpt>
      <trkpt lat="48.7454" lon="-3.99332">
        <ele>21.39999961853</ele>
        <time>2022-10-07T12:16:37Z</time>
      </trkpt>
      <trkpt lat="48.7454" lon="-3.99326">
        <ele>21.200000762939</ele>
        <time>2022-10-07T12:16:41Z</time>
      </trkpt>
      <trkpt lat="48.74535" lon="-3.99315">
        <ele>21</ele>
        <time>2022-10-07T12:16:50Z</time>
      </trkpt>
      <trkpt lat="48.7453" lon="-3.99301">
        <ele>20.200000762939</ele>
        <time>2022-10-07T12:17:04Z</time>
      </trkpt>
      <trkpt lat="48.7453" lon="-3.99288">
        <ele>21.200000762939</ele>
        <time>2022-10-07T12:17:14Z</time>
      </trkpt>
      <trkpt lat="48.7453" lon="-3.9925">
        <ele>21.200000762939</ele>
        <time>2022-10-07T12:17:37Z</time>
      </trkpt>
      <trkpt lat="48.74527" lon="-3.99212">
        <ele>21</ele>
        <time>2022-10-07T12:18:00Z</time>
      </trkpt>
      <trkpt lat="48.74526" lon="-3.99192">
        <ele>21.60000038147</ele>
        <time>2022-10-07T12:18:16Z</time>
      </trkpt>
      <trkpt lat="48.74527" lon="-3.99182">
        <ele>22.200000762939</ele>
        <time>2022-10-07T12:18:23Z</time>
      </trkpt>
      <trkpt lat="48.74528" lon="-3.99165">
        <ele>22.39999961853</ele>
        <time>2022-10-07T12:18:39Z</time>
      </trkpt>
      <trkpt lat="48.74532" lon="-3.99156">
        <ele>22.39999961853</ele>
        <time>2022-10-07T12:18:46Z</time>
      </trkpt>
      <trkpt lat="48.74539" lon="-3.99141">
        <ele>22</ele>
        <time>2022-10-07T12:18:59Z</time>
      </trkpt>
      <trkpt lat="48.74548" lon="-3.9912">
        <ele>20.60000038147</ele>
        <time>2022-10-07T12:19:16Z</time>
      </trkpt>
      <trkpt lat="48.74555" lon="-3.99101">
        <ele>21</ele>
        <time>2022-10-07T12:19:31Z</time>
      </trkpt>
      <trkpt lat="48.74553" lon="-3.99092">
        <ele>21</ele>
        <time>2022-10-07T12:19:45Z</time>
      </trkpt>
      <trkpt lat="48.74552" lon="-3.99091">
        <ele>21.39999961853</ele>
        <time>2022-10-07T12:20:07Z</time>
      </trkpt>
      <trkpt lat="48.74553" lon="-3.99089">
        <ele>21.39999961853</ele>
        <time>2022-10-07T12:20:30Z</time>
      </trkpt>
      <trkpt lat="48.74553" lon="-3.99093">
        <ele>21.200000762939</ele>
        <time>2022-10-07T12:21:06Z</time>
      </trkpt>
      <trkpt lat="48.74555" lon="-3.99087">
        <ele>21</ele>
        <time>2022-10-07T12:21:20Z</time>
      </trkpt>
      <trkpt lat="48.74556" lon="-3.99068">
        <ele>21.200000762939</ele>
        <time>2022-10-07T12:21:37Z</time>
      </trkpt>
      <trkpt lat="48.74551" lon="-3.99054">
        <ele>21</ele>
        <time>2022-10-07T12:21:50Z</time>
      </trkpt>
      <trkpt lat="48.74539" lon="-3.99036">
        <ele>21</ele>
        <time>2022-10-07T12:22:10Z</time>
      </trkpt>
      <trkpt lat="48.74531" lon="-3.9903">
        <ele>20.799999237061</ele>
        <time>2022-10-07T12:22:21Z</time>
      </trkpt>
      <trkpt lat="48.74516" lon="-3.99031">
        <ele>20.799999237061</ele>
        <time>2022-10-07T12:22:41Z</time>
      </trkpt>
      <trkpt lat="48.74505" lon="-3.99039">
        <ele>20.799999237061</ele>
        <time>2022-10-07T12:22:58Z</time>
      </trkpt>
      <trkpt lat="48.745" lon="-3.99044">
        <ele>21</ele>
        <time>2022-10-07T12:23:19Z</time>
      </trkpt>
      <trkpt lat="48.74492" lon="-3.99055">
        <ele>20.60000038147</ele>
        <time>2022-10-07T12:23:36Z</time>
      </trkpt>
      <trkpt lat="48.74478" lon="-3.99075">
        <ele>20.799999237061</ele>
        <time>2022-10-07T12:23:56Z</time>
      </trkpt>
      <trkpt lat="48.74472" lon="-3.99083">
        <ele>21</ele>
        <time>2022-10-07T12:24:20Z</time>
      </trkpt>
      <trkpt lat="48.74465" lon="-3.991">
        <ele>20.60000038147</ele>
        <time>2022-10-07T12:24:42Z</time>
      </trkpt>
      <trkpt lat="48.74455" lon="-3.99119">
        <ele>20.39999961853</ele>
        <time>2022-10-07T12:25:00Z</time>
      </trkpt>
      <trkpt lat="48.7445" lon="-3.99134">
        <ele>21</ele>
        <time>2022-10-07T12:25:14Z</time>
      </trkpt>
      <trkpt lat="48.74443" lon="-3.99161">
        <ele>21.60000038147</ele>
        <time>2022-10-07T12:25:34Z</time>
      </trkpt>
      <trkpt lat="48.74441" lon="-3.99173">
        <ele>21.799999237061</ele>
        <time>2022-10-07T12:25:44Z</time>
      </trkpt>
      <trkpt lat="48.74437" lon="-3.99168">
        <ele>21.39999961853</ele>
        <time>2022-10-07T12:25:50Z</time>
      </trkpt>
      <trkpt lat="48.7442" lon="-3.9916">
        <ele>19.799999237061</ele>
        <time>2022-10-07T12:26:10Z</time>
      </trkpt>
      <trkpt lat="48.74417" lon="-3.99159">
        <ele>19.799999237061</ele>
        <time>2022-10-07T12:26:13Z</time>
      </trkpt>
      <trkpt lat="48.74411" lon="-3.9916">
        <ele>19</ele>
        <time>2022-10-07T12:26:33Z</time>
      </trkpt>
      <trkpt lat="48.74393" lon="-3.99165">
        <ele>19</ele>
        <time>2022-10-07T12:26:56Z</time>
      </trkpt>
      <trkpt lat="48.74389" lon="-3.99167">
        <ele>19.39999961853</ele>
        <time>2022-10-07T12:27:01Z</time>
      </trkpt>
      <trkpt lat="48.74366" lon="-3.99178">
        <ele>20</ele>
        <time>2022-10-07T12:27:24Z</time>
      </trkpt>
      <trkpt lat="48.74345" lon="-3.99182">
        <ele>20.39999961853</ele>
        <time>2022-10-07T12:27:45Z</time>
      </trkpt>
      <trkpt lat="48.74336" lon="-3.99184">
        <ele>21</ele>
        <time>2022-10-07T12:27:57Z</time>
      </trkpt>
      <trkpt lat="48.74326" lon="-3.99193">
        <ele>21.39999961853</ele>
        <time>2022-10-07T12:28:17Z</time>
      </trkpt>
      <trkpt lat="48.74311" lon="-3.99195">
        <ele>21.60000038147</ele>
        <time>2022-10-07T12:28:34Z</time>
      </trkpt>
      <trkpt lat="48.74296" lon="-3.99193">
        <ele>22.799999237061</ele>
        <time>2022-10-07T12:28:52Z</time>
      </trkpt>
      <trkpt lat="48.74286" lon="-3.99191">
        <ele>24</ele>
        <time>2022-10-07T12:29:03Z</time>
      </trkpt>
      <trkpt lat="48.74267" lon="-3.99183">
        <ele>23.60000038147</ele>
        <time>2022-10-07T12:29:24Z</time>
      </trkpt>
      <trkpt lat="48.74246" lon="-3.99176">
        <ele>23.799999237061</ele>
        <time>2022-10-07T12:29:45Z</time>
      </trkpt>
      <trkpt lat="48.74242" lon="-3.99176">
        <ele>24.799999237061</ele>
        <time>2022-10-07T12:30:06Z</time>
      </trkpt>
      <trkpt lat="48.74233" lon="-3.9917">
        <ele>24</ele>
        <time>2022-10-07T12:30:32Z</time>
      </trkpt>
      <trkpt lat="48.74225" lon="-3.99167">
        <ele>23.799999237061</ele>
        <time>2022-10-07T12:31:21Z</time>
      </trkpt>
      <trkpt lat="48.74222" lon="-3.99165">
        <ele>23.799999237061</ele>
        <time>2022-10-07T12:31:26Z</time>
      </trkpt>
      <trkpt lat="48.74211" lon="-3.99158">
        <ele>23.39999961853</ele>
        <time>2022-10-07T12:31:43Z</time>
      </trkpt>
      <trkpt lat="48.74205" lon="-3.99145">
        <ele>24.200000762939</ele>
        <time>2022-10-07T12:32:05Z</time>
      </trkpt>
      <trkpt lat="48.74193" lon="-3.99124">
        <ele>24.60000038147</ele>
        <time>2022-10-07T12:32:28Z</time>
      </trkpt>
      <trkpt lat="48.74179" lon="-3.99109">
        <ele>24.799999237061</ele>
        <time>2022-10-07T12:32:50Z</time>
      </trkpt>
      <trkpt lat="48.74173" lon="-3.99099">
        <ele>25.200000762939</ele>
        <time>2022-10-07T12:32:59Z</time>
      </trkpt>
      <trkpt lat="48.74163" lon="-3.99082">
        <ele>25.200000762939</ele>
        <time>2022-10-07T12:33:18Z</time>
      </trkpt>
      <trkpt lat="48.74155" lon="-3.99075">
        <ele>24.799999237061</ele>
        <time>2022-10-07T12:33:39Z</time>
      </trkpt>
      <trkpt lat="48.74151" lon="-3.99069">
        <ele>24.799999237061</ele>
        <time>2022-10-07T12:33:46Z</time>
      </trkpt>
      <trkpt lat="48.74137" lon="-3.99044">
        <ele>25.60000038147</ele>
        <time>2022-10-07T12:34:09Z</time>
      </trkpt>
      <trkpt lat="48.74136" lon="-3.99041">
        <ele>25.60000038147</ele>
        <time>2022-10-07T12:34:12Z</time>
      </trkpt>
      <trkpt lat="48.74133" lon="-3.99008">
        <ele>24.799999237061</ele>
        <time>2022-10-07T12:34:34Z</time>
      </trkpt>
      <trkpt lat="48.74135" lon="-3.98986">
        <ele>23.799999237061</ele>
        <time>2022-10-07T12:34:52Z</time>
      </trkpt>
      <trkpt lat="48.74137" lon="-3.98968">
        <ele>23.799999237061</ele>
        <time>2022-10-07T12:35:13Z</time>
      </trkpt>
      <trkpt lat="48.7414" lon="-3.98967">
        <ele>23.39999961853</ele>
        <time>2022-10-07T12:35:37Z</time>
      </trkpt>
      <trkpt lat="48.74141" lon="-3.98961">
        <ele>21.39999961853</ele>
        <time>2022-10-07T12:36:02Z</time>
      </trkpt>
      <trkpt lat="48.74138" lon="-3.98963">
        <ele>21</ele>
        <time>2022-10-07T12:36:43Z</time>
      </trkpt>
      <trkpt lat="48.74139" lon="-3.98963">
        <ele>20.799999237061</ele>
        <time>2022-10-07T12:37:27Z</time>
      </trkpt>
      <trkpt lat="48.74136" lon="-3.98963">
        <ele>21.200000762939</ele>
        <time>2022-10-07T12:38:16Z</time>
      </trkpt>
      <trkpt lat="48.74138" lon="-3.98963">
        <ele>21</ele>
        <time>2022-10-07T12:39:52Z</time>
      </trkpt>
      <trkpt lat="48.74137" lon="-3.98961">
        <ele>21.200000762939</ele>
        <time>2022-10-07T12:40:40Z</time>
      </trkpt>
      <trkpt lat="48.74137" lon="-3.98963">
        <ele>21.60000038147</ele>
        <time>2022-10-07T12:41:31Z</time>
      </trkpt>
      <trkpt lat="48.74137" lon="-3.98964">
        <ele>22.200000762939</ele>
        <time>2022-10-07T12:42:08Z</time>
      </trkpt>
      <trkpt lat="48.74135" lon="-3.98967">
        <ele>23</ele>
        <time>2022-10-07T12:42:24Z</time>
      </trkpt>
      <trkpt lat="48.74125" lon="-3.98962">
        <ele>24.60000038147</ele>
        <time>2022-10-07T12:42:42Z</time>
      </trkpt>
      <trkpt lat="48.74121" lon="-3.98959">
        <ele>24.60000038147</ele>
        <time>2022-10-07T12:42:46Z</time>
      </trkpt>
      <trkpt lat="48.74104" lon="-3.98965">
        <ele>23.39999961853</ele>
        <time>2022-10-07T12:43:06Z</time>
      </trkpt>
      <trkpt lat="48.74092" lon="-3.98978">
        <ele>23</ele>
        <time>2022-10-07T12:43:27Z</time>
      </trkpt>
      <trkpt lat="48.74083" lon="-3.98985">
        <ele>22.60000038147</ele>
        <time>2022-10-07T12:43:55Z</time>
      </trkpt>
      <trkpt lat="48.74071" lon="-3.99002">
        <ele>21.39999961853</ele>
        <time>2022-10-07T12:44:16Z</time>
      </trkpt>
      <trkpt lat="48.74061" lon="-3.98998">
        <ele>21.799999237061</ele>
        <time>2022-10-07T12:44:34Z</time>
      </trkpt>
      <trkpt lat="48.74049" lon="-3.99004">
        <ele>23.799999237061</ele>
        <time>2022-10-07T12:44:52Z</time>
      </trkpt>
      <trkpt lat="48.7404" lon="-3.99006">
        <ele>24.60000038147</ele>
        <time>2022-10-07T12:45:07Z</time>
      </trkpt>
      <trkpt lat="48.74023" lon="-3.99003">
        <ele>24.200000762939</ele>
        <time>2022-10-07T12:45:28Z</time>
      </trkpt>
      <trkpt lat="48.74013" lon="-3.98994">
        <ele>24.60000038147</ele>
        <time>2022-10-07T12:45:47Z</time>
      </trkpt>
      <trkpt lat="48.74003" lon="-3.98987">
        <ele>24.200000762939</ele>
        <time>2022-10-07T12:46:03Z</time>
      </trkpt>
      <trkpt lat="48.7399" lon="-3.98975">
        <ele>24.60000038147</ele>
        <time>2022-10-07T12:46:23Z</time>
      </trkpt>
      <trkpt lat="48.73977" lon="-3.98958">
        <ele>25.200000762939</ele>
        <time>2022-10-07T12:46:43Z</time>
      </trkpt>
      <trkpt lat="48.73967" lon="-3.98939">
        <ele>24.60000038147</ele>
        <time>2022-10-07T12:47:03Z</time>
      </trkpt>
      <trkpt lat="48.73967" lon="-3.98938">
        <ele>24.39999961853</ele>
        <time>2022-10-07T12:47:04Z</time>
      </trkpt>
      <trkpt lat="48.73958" lon="-3.98922">
        <ele>23.39999961853</ele>
        <time>2022-10-07T12:47:21Z</time>
      </trkpt>
      <trkpt lat="48.73947" lon="-3.98911">
        <ele>24.39999961853</ele>
        <time>2022-10-07T12:47:42Z</time>
      </trkpt>
      <trkpt lat="48.73935" lon="-3.98913">
        <ele>23.60000038147</ele>
        <time>2022-10-07T12:48:02Z</time>
      </trkpt>
      <trkpt lat="48.73927" lon="-3.9893">
        <ele>23.200000762939</ele>
        <time>2022-10-07T12:48:21Z</time>
      </trkpt>
      <trkpt lat="48.73924" lon="-3.98943">
        <ele>23.200000762939</ele>
        <time>2022-10-07T12:48:32Z</time>
      </trkpt>
      <trkpt lat="48.73913" lon="-3.98951">
        <ele>23</ele>
        <time>2022-10-07T12:48:49Z</time>
      </trkpt>
      <trkpt lat="48.73904" lon="-3.98962">
        <ele>22.799999237061</ele>
        <time>2022-10-07T12:49:12Z</time>
      </trkpt>
      <trkpt lat="48.73907" lon="-3.98963">
        <ele>26</ele>
        <time>2022-10-07T12:49:34Z</time>
      </trkpt>
      <trkpt lat="48.7391" lon="-3.98963">
        <ele>26.200000762939</ele>
        <time>2022-10-07T12:50:02Z</time>
      </trkpt>
      <trkpt lat="48.73909" lon="-3.98964">
        <ele>26.39999961853</ele>
        <time>2022-10-07T12:50:24Z</time>
      </trkpt>
      <trkpt lat="48.73908" lon="-3.98961">
        <ele>26.39999961853</ele>
        <time>2022-10-07T12:51:02Z</time>
      </trkpt>
      <trkpt lat="48.73909" lon="-3.98962">
        <ele>26.39999961853</ele>
        <time>2022-10-07T12:51:38Z</time>
      </trkpt>
      <trkpt lat="48.73909" lon="-3.98963">
        <ele>26.799999237061</ele>
        <time>2022-10-07T12:52:34Z</time>
      </trkpt>
      <trkpt lat="48.73908" lon="-3.98965">
        <ele>26.39999961853</ele>
        <time>2022-10-07T12:53:43Z</time>
      </trkpt>
      <trkpt lat="48.73909" lon="-3.98963">
        <ele>26.39999961853</ele>
        <time>2022-10-07T12:54:11Z</time>
      </trkpt>
      <trkpt lat="48.73909" lon="-3.98963">
        <ele>26.60000038147</ele>
        <time>2022-10-07T12:54:59Z</time>
      </trkpt>
      <trkpt lat="48.73904" lon="-3.98961">
        <ele>25.39999961853</ele>
        <time>2022-10-07T12:55:28Z</time>
      </trkpt>
      <trkpt lat="48.73903" lon="-3.98958">
        <ele>23.39999961853</ele>
        <time>2022-10-07T12:55:51Z</time>
      </trkpt>
      <trkpt lat="48.73902" lon="-3.98954">
        <ele>23.200000762939</ele>
        <time>2022-10-07T12:56:33Z</time>
      </trkpt>
      <trkpt lat="48.73906" lon="-3.98952">
        <ele>23.200000762939</ele>
        <time>2022-10-07T12:56:54Z</time>
      </trkpt>
      <trkpt lat="48.73908" lon="-3.98952">
        <ele>23.39999961853</ele>
        <time>2022-10-07T12:57:28Z</time>
      </trkpt>
      <trkpt lat="48.73902" lon="-3.98962">
        <ele>23.60000038147</ele>
        <time>2022-10-07T12:57:54Z</time>
      </trkpt>
      <trkpt lat="48.73891" lon="-3.9898">
        <ele>24.200000762939</ele>
        <time>2022-10-07T12:58:11Z</time>
      </trkpt>
      <trkpt lat="48.73876" lon="-3.99014">
        <ele>25.39999961853</ele>
        <time>2022-10-07T12:58:37Z</time>
      </trkpt>
      <trkpt lat="48.73876" lon="-3.99034">
        <ele>26.200000762939</ele>
        <time>2022-10-07T12:58:52Z</time>
      </trkpt>
      <trkpt lat="48.73876" lon="-3.99063">
        <ele>25.200000762939</ele>
        <time>2022-10-07T12:59:10Z</time>
      </trkpt>
      <trkpt lat="48.73876" lon="-3.99095">
        <ele>25.200000762939</ele>
        <time>2022-10-07T12:59:29Z</time>
      </trkpt>
      <trkpt lat="48.73871" lon="-3.99112">
        <ele>25.39999961853</ele>
        <time>2022-10-07T12:59:43Z</time>
      </trkpt>
      <trkpt lat="48.73864" lon="-3.99126">
        <ele>27</ele>
        <time>2022-10-07T12:59:58Z</time>
      </trkpt>
      <trkpt lat="48.73862" lon="-3.99135">
        <ele>27.799999237061</ele>
        <time>2022-10-07T13:00:23Z</time>
      </trkpt>
      <trkpt lat="48.73856" lon="-3.99149">
        <ele>28</ele>
        <time>2022-10-07T13:00:39Z</time>
      </trkpt>
      <trkpt lat="48.73849" lon="-3.99148">
        <ele>28.39999961853</ele>
        <time>2022-10-07T13:00:49Z</time>
      </trkpt>
      <trkpt lat="48.73832" lon="-3.99141">
        <ele>28.60000038147</ele>
        <time>2022-10-07T13:01:07Z</time>
      </trkpt>
      <trkpt lat="48.73824" lon="-3.99141">
        <ele>28.799999237061</ele>
        <time>2022-10-07T13:01:15Z</time>
      </trkpt>
      <trkpt lat="48.73808" lon="-3.99143">
        <ele>28.39999961853</ele>
        <time>2022-10-07T13:01:32Z</time>
      </trkpt>
      <trkpt lat="48.73794" lon="-3.99143">
        <ele>29.200000762939</ele>
        <time>2022-10-07T13:01:48Z</time>
      </trkpt>
      <trkpt lat="48.73788" lon="-3.99142">
        <ele>28.39999961853</ele>
        <time>2022-10-07T13:02:07Z</time>
      </trkpt>
      <trkpt lat="48.73775" lon="-3.99142">
        <ele>27.60000038147</ele>
        <time>2022-10-07T13:02:22Z</time>
      </trkpt>
      <trkpt lat="48.73772" lon="-3.99144">
        <ele>27.39999961853</ele>
        <time>2022-10-07T13:02:26Z</time>
      </trkpt>
      <trkpt lat="48.73762" lon="-3.99171">
        <ele>26</ele>
        <time>2022-10-07T13:02:46Z</time>
      </trkpt>
      <trkpt lat="48.73754" lon="-3.9919">
        <ele>25.799999237061</ele>
        <time>2022-10-07T13:03:03Z</time>
      </trkpt>
      <trkpt lat="48.73743" lon="-3.99211">
        <ele>26.200000762939</ele>
        <time>2022-10-07T13:03:20Z</time>
      </trkpt>
      <trkpt lat="48.73732" lon="-3.99235">
        <ele>25.39999961853</ele>
        <time>2022-10-07T13:03:41Z</time>
      </trkpt>
      <trkpt lat="48.73731" lon="-3.99255">
        <ele>25.200000762939</ele>
        <time>2022-10-07T13:03:54Z</time>
      </trkpt>
      <trkpt lat="48.73731" lon="-3.99293">
        <ele>24.60000038147</ele>
        <time>2022-10-07T13:04:19Z</time>
      </trkpt>
      <trkpt lat="48.73739" lon="-3.99315">
        <ele>24</ele>
        <time>2022-10-07T13:04:36Z</time>
      </trkpt>
      <trkpt lat="48.73743" lon="-3.99316">
        <ele>24.60000038147</ele>
        <time>2022-10-07T13:04:41Z</time>
      </trkpt>
      <trkpt lat="48.73755" lon="-3.99298">
        <ele>25.799999237061</ele>
        <time>2022-10-07T13:04:59Z</time>
      </trkpt>
      <trkpt lat="48.73764" lon="-3.99289">
        <ele>28.200000762939</ele>
        <time>2022-10-07T13:05:15Z</time>
      </trkpt>
      <trkpt lat="48.73767" lon="-3.99283">
        <ele>29.60000038147</ele>
        <time>2022-10-07T13:05:32Z</time>
      </trkpt>
      <trkpt lat="48.73766" lon="-3.99282">
        <ele>28.60000038147</ele>
        <time>2022-10-07T13:06:09Z</time>
      </trkpt>
      <trkpt lat="48.73766" lon="-3.99283">
        <ele>29.39999961853</ele>
        <time>2022-10-07T13:07:06Z</time>
      </trkpt>
      <trkpt lat="48.73768" lon="-3.99283">
        <ele>28.799999237061</ele>
        <time>2022-10-07T13:07:27Z</time>
      </trkpt>
      <trkpt lat="48.73765" lon="-3.99284">
        <ele>29.39999961853</ele>
        <time>2022-10-07T13:08:02Z</time>
      </trkpt>
      <trkpt lat="48.73769" lon="-3.99282">
        <ele>29.200000762939</ele>
        <time>2022-10-07T13:08:24Z</time>
      </trkpt>
      <trkpt lat="48.7378" lon="-3.99282">
        <ele>29.39999961853</ele>
        <time>2022-10-07T13:08:41Z</time>
      </trkpt>
      <trkpt lat="48.73781" lon="-3.99282">
        <ele>29.39999961853</ele>
        <time>2022-10-07T13:09:00Z</time>
      </trkpt>
      <trkpt lat="48.73788" lon="-3.99283">
        <ele>29.200000762939</ele>
        <time>2022-10-07T13:09:08Z</time>
      </trkpt>
      <trkpt lat="48.73792" lon="-3.99285">
        <ele>29</ele>
        <time>2022-10-07T13:09:12Z</time>
      </trkpt>
      <trkpt lat="48.73802" lon="-3.99289">
        <ele>28.60000038147</ele>
        <time>2022-10-07T13:09:20Z</time>
      </trkpt>
      <trkpt lat="48.73821" lon="-3.99291">
        <ele>28.60000038147</ele>
        <time>2022-10-07T13:09:39Z</time>
      </trkpt>
      <trkpt lat="48.73828" lon="-3.99292">
        <ele>28.799999237061</ele>
        <time>2022-10-07T13:09:46Z</time>
      </trkpt>
      <trkpt lat="48.73836" lon="-3.99302">
        <ele>28.799999237061</ele>
        <time>2022-10-07T13:09:55Z</time>
      </trkpt>
      <trkpt lat="48.73849" lon="-3.99312">
        <ele>28.60000038147</ele>
        <time>2022-10-07T13:10:09Z</time>
      </trkpt>
      <trkpt lat="48.73863" lon="-3.99316">
        <ele>28.39999961853</ele>
        <time>2022-10-07T13:10:23Z</time>
      </trkpt>
      <trkpt lat="48.7388" lon="-3.99328">
        <ele>26.799999237061</ele>
        <time>2022-10-07T13:10:39Z</time>
      </trkpt>
      <trkpt lat="48.73899" lon="-3.99343">
        <ele>26.39999961853</ele>
        <time>2022-10-07T13:11:00Z</time>
      </trkpt>
      <trkpt lat="48.73916" lon="-3.99355">
        <ele>27</ele>
        <time>2022-10-07T13:11:21Z</time>
      </trkpt>
      <trkpt lat="48.73923" lon="-3.99363">
        <ele>26.60000038147</ele>
        <time>2022-10-07T13:11:29Z</time>
      </trkpt>
      <trkpt lat="48.73935" lon="-3.99369">
        <ele>26.200000762939</ele>
        <time>2022-10-07T13:11:47Z</time>
      </trkpt>
      <trkpt lat="48.73955" lon="-3.9936">
        <ele>26.799999237061</ele>
        <time>2022-10-07T13:12:10Z</time>
      </trkpt>
      <trkpt lat="48.73979" lon="-3.9935">
        <ele>25.39999961853</ele>
        <time>2022-10-07T13:12:35Z</time>
      </trkpt>
      <trkpt lat="48.73997" lon="-3.99344">
        <ele>27</ele>
        <time>2022-10-07T13:12:55Z</time>
      </trkpt>
      <trkpt lat="48.74008" lon="-3.99345">
        <ele>27</ele>
        <time>2022-10-07T13:13:09Z</time>
      </trkpt>
      <trkpt lat="48.74025" lon="-3.99351">
        <ele>25.60000038147</ele>
        <time>2022-10-07T13:13:25Z</time>
      </trkpt>
      <trkpt lat="48.74043" lon="-3.99351">
        <ele>25.60000038147</ele>
        <time>2022-10-07T13:13:44Z</time>
      </trkpt>
      <trkpt lat="48.7405" lon="-3.9935">
        <ele>25.60000038147</ele>
        <time>2022-10-07T13:13:52Z</time>
      </trkpt>
      <trkpt lat="48.74054" lon="-3.99348">
        <ele>26.200000762939</ele>
        <time>2022-10-07T13:13:57Z</time>
      </trkpt>
      <trkpt lat="48.74081" lon="-3.9935">
        <ele>24.799999237061</ele>
        <time>2022-10-07T13:14:20Z</time>
      </trkpt>
      <trkpt lat="48.74096" lon="-3.99353">
        <ele>24.200000762939</ele>
        <time>2022-10-07T13:14:34Z</time>
      </trkpt>
      <trkpt lat="48.74103" lon="-3.99357">
        <ele>24.200000762939</ele>
        <time>2022-10-07T13:14:40Z</time>
      </trkpt>
      <trkpt lat="48.74111" lon="-3.99365">
        <ele>24</ele>
        <time>2022-10-07T13:14:49Z</time>
      </trkpt>
      <trkpt lat="48.74126" lon="-3.99374">
        <ele>24</ele>
        <time>2022-10-07T13:15:05Z</time>
      </trkpt>
      <trkpt lat="48.7413" lon="-3.99375">
        <ele>24</ele>
        <time>2022-10-07T13:15:09Z</time>
      </trkpt>
      <trkpt lat="48.74139" lon="-3.99377">
        <ele>24.200000762939</ele>
        <time>2022-10-07T13:15:25Z</time>
      </trkpt>
      <trkpt lat="48.7415" lon="-3.99375">
        <ele>24.39999961853</ele>
        <time>2022-10-07T13:15:37Z</time>
      </trkpt>
      <trkpt lat="48.74155" lon="-3.99367">
        <ele>24.60000038147</ele>
        <time>2022-10-07T13:15:45Z</time>
      </trkpt>
      <trkpt lat="48.74157" lon="-3.99365">
        <ele>24.60000038147</ele>
        <time>2022-10-07T13:15:48Z</time>
      </trkpt>
      <trkpt lat="48.74163" lon="-3.99354">
        <ele>25</ele>
        <time>2022-10-07T13:16:06Z</time>
      </trkpt>
      <trkpt lat="48.74177" lon="-3.99338">
        <ele>27.799999237061</ele>
        <time>2022-10-07T13:16:29Z</time>
      </trkpt>
      <trkpt lat="48.74189" lon="-3.99335">
        <ele>27.39999961853</ele>
        <time>2022-10-07T13:16:45Z</time>
      </trkpt>
      <trkpt lat="48.74193" lon="-3.99328">
        <ele>25.39999961853</ele>
        <time>2022-10-07T13:17:03Z</time>
      </trkpt>
      <trkpt lat="48.74197" lon="-3.99329">
        <ele>22.799999237061</ele>
        <time>2022-10-07T13:17:24Z</time>
      </trkpt>
      <trkpt lat="48.742" lon="-3.99328">
        <ele>22.60000038147</ele>
        <time>2022-10-07T13:17:49Z</time>
      </trkpt>
      <trkpt lat="48.74198" lon="-3.99343">
        <ele>22.60000038147</ele>
        <time>2022-10-07T13:18:07Z</time>
      </trkpt>
      <trkpt lat="48.74195" lon="-3.99363">
        <ele>22.799999237061</ele>
        <time>2022-10-07T13:18:27Z</time>
      </trkpt>
      <trkpt lat="48.74193" lon="-3.99373">
        <ele>24.200000762939</ele>
        <time>2022-10-07T13:18:41Z</time>
      </trkpt>
      <trkpt lat="48.74192" lon="-3.99378">
        <ele>26</ele>
        <time>2022-10-07T13:19:02Z</time>
      </trkpt>
      <trkpt lat="48.74193" lon="-3.99377">
        <ele>26</ele>
        <time>2022-10-07T13:19:36Z</time>
      </trkpt>
      <trkpt lat="48.74193" lon="-3.99374">
        <ele>26.200000762939</ele>
        <time>2022-10-07T13:20:36Z</time>
      </trkpt>
      <trkpt lat="48.74193" lon="-3.99378">
        <ele>26</ele>
        <time>2022-10-07T13:21:39Z</time>
      </trkpt>
      <trkpt lat="48.74192" lon="-3.99376">
        <ele>26.200000762939</ele>
        <time>2022-10-07T13:22:41Z</time>
      </trkpt>
      <trkpt lat="48.74192" lon="-3.99378">
        <ele>25.799999237061</ele>
        <time>2022-10-07T13:23:35Z</time>
      </trkpt>
      <trkpt lat="48.74192" lon="-3.99379">
        <ele>27</ele>
        <time>2022-10-07T13:24:15Z</time>
      </trkpt>
      <trkpt lat="48.74192" lon="-3.99377">
        <ele>26.60000038147</ele>
        <time>2022-10-07T13:24:54Z</time>
      </trkpt>
      <trkpt lat="48.74192" lon="-3.99372">
        <ele>26.60000038147</ele>
        <time>2022-10-07T13:25:02Z</time>
      </trkpt>
      <trkpt lat="48.7419" lon="-3.99353">
        <ele>26</ele>
        <time>2022-10-07T13:25:17Z</time>
      </trkpt>
      <trkpt lat="48.7419" lon="-3.99348">
        <ele>26</ele>
        <time>2022-10-07T13:25:20Z</time>
      </trkpt>
      <trkpt lat="48.74193" lon="-3.99324">
        <ele>25.799999237061</ele>
        <time>2022-10-07T13:25:36Z</time>
      </trkpt>
      <trkpt lat="48.74199" lon="-3.99308">
        <ele>26.799999237061</ele>
        <time>2022-10-07T13:25:53Z</time>
      </trkpt>
      <trkpt lat="48.74207" lon="-3.99291">
        <ele>28</ele>
        <time>2022-10-07T13:26:07Z</time>
      </trkpt>
      <trkpt lat="48.7422" lon="-3.9927">
        <ele>28.39999961853</ele>
        <time>2022-10-07T13:26:22Z</time>
      </trkpt>
      <trkpt lat="48.7423" lon="-3.99265">
        <ele>28.39999961853</ele>
        <time>2022-10-07T13:26:32Z</time>
      </trkpt>
      <trkpt lat="48.74236" lon="-3.9926">
        <ele>28</ele>
        <time>2022-10-07T13:26:39Z</time>
      </trkpt>
      <trkpt lat="48.74247" lon="-3.99256">
        <ele>28</ele>
        <time>2022-10-07T13:26:51Z</time>
      </trkpt>
      <trkpt lat="48.74259" lon="-3.99244">
        <ele>28.39999961853</ele>
        <time>2022-10-07T13:27:08Z</time>
      </trkpt>
      <trkpt lat="48.74256" lon="-3.99246">
        <ele>29</ele>
        <time>2022-10-07T13:27:24Z</time>
      </trkpt>
      <trkpt lat="48.74247" lon="-3.99247">
        <ele>29</ele>
        <time>2022-10-07T13:27:42Z</time>
      </trkpt>
      <trkpt lat="48.7423" lon="-3.99254">
        <ele>29</ele>
        <time>2022-10-07T13:28:00Z</time>
      </trkpt>
      <trkpt lat="48.74218" lon="-3.99263">
        <ele>28</ele>
        <time>2022-10-07T13:28:18Z</time>
      </trkpt>
      <trkpt lat="48.74229" lon="-3.99278">
        <ele>27.799999237061</ele>
        <time>2022-10-07T13:28:36Z</time>
      </trkpt>
      <trkpt lat="48.7423" lon="-3.9928">
        <ele>29.200000762939</ele>
        <time>2022-10-07T13:28:59Z</time>
      </trkpt>
      <trkpt lat="48.74216" lon="-3.99269">
        <ele>27.60000038147</ele>
        <time>2022-10-07T13:29:17Z</time>
      </trkpt>
      <trkpt lat="48.74212" lon="-3.99276">
        <ele>27.60000038147</ele>
        <time>2022-10-07T13:29:22Z</time>
      </trkpt>
      <trkpt lat="48.74206" lon="-3.99283">
        <ele>27.60000038147</ele>
        <time>2022-10-07T13:29:29Z</time>
      </trkpt>
      <trkpt lat="48.74202" lon="-3.99299">
        <ele>28</ele>
        <time>2022-10-07T13:29:45Z</time>
      </trkpt>
      <trkpt lat="48.74194" lon="-3.99317">
        <ele>26.60000038147</ele>
        <time>2022-10-07T13:30:03Z</time>
      </trkpt>
      <trkpt lat="48.74191" lon="-3.99327">
        <ele>26.200000762939</ele>
        <time>2022-10-07T13:30:10Z</time>
      </trkpt>
      <trkpt lat="48.7419" lon="-3.99337">
        <ele>25.799999237061</ele>
        <time>2022-10-07T13:30:16Z</time>
      </trkpt>
      <trkpt lat="48.74189" lon="-3.9935">
        <ele>25.60000038147</ele>
        <time>2022-10-07T13:30:25Z</time>
      </trkpt>
      <trkpt lat="48.74186" lon="-3.99368">
        <ele>25.200000762939</ele>
        <time>2022-10-07T13:30:42Z</time>
      </trkpt>
      <trkpt lat="48.74185" lon="-3.99374">
        <ele>25.799999237061</ele>
        <time>2022-10-07T13:30:51Z</time>
      </trkpt>
      <trkpt lat="48.74184" lon="-3.99381">
        <ele>26</ele>
        <time>2022-10-07T13:30:55Z</time>
      </trkpt>
      <trkpt lat="48.74186" lon="-3.99396">
        <ele>26.60000038147</ele>
        <time>2022-10-07T13:31:17Z</time>
      </trkpt>
      <trkpt lat="48.74184" lon="-3.99398">
        <ele>26.60000038147</ele>
        <time>2022-10-07T13:32:00Z</time>
      </trkpt>
      <trkpt lat="48.74181" lon="-3.99408">
        <ele>26.799999237061</ele>
        <time>2022-10-07T13:32:38Z</time>
      </trkpt>
      <trkpt lat="48.74175" lon="-3.99427">
        <ele>25.200000762939</ele>
        <time>2022-10-07T13:32:56Z</time>
      </trkpt>
      <trkpt lat="48.7417" lon="-3.99455">
        <ele>26.60000038147</ele>
        <time>2022-10-07T13:33:13Z</time>
      </trkpt>
      <trkpt lat="48.74163" lon="-3.99486">
        <ele>27</ele>
        <time>2022-10-07T13:33:34Z</time>
      </trkpt>
      <trkpt lat="48.74165" lon="-3.99515">
        <ele>28</ele>
        <time>2022-10-07T13:33:53Z</time>
      </trkpt>
      <trkpt lat="48.74168" lon="-3.99521">
        <ele>28</ele>
        <time>2022-10-07T13:33:58Z</time>
      </trkpt>
      <trkpt lat="48.74174" lon="-3.9954">
        <ele>28.39999961853</ele>
        <time>2022-10-07T13:34:15Z</time>
      </trkpt>
      <trkpt lat="48.74179" lon="-3.99557">
        <ele>29.799999237061</ele>
        <time>2022-10-07T13:34:33Z</time>
      </trkpt>
      <trkpt lat="48.74198" lon="-3.99583">
        <ele>32.200000762939</ele>
        <time>2022-10-07T13:34:57Z</time>
      </trkpt>
      <trkpt lat="48.74208" lon="-3.99606">
        <ele>33.400001525879</ele>
        <time>2022-10-07T13:35:15Z</time>
      </trkpt>
      <trkpt lat="48.74212" lon="-3.9964">
        <ele>33.400001525879</ele>
        <time>2022-10-07T13:35:37Z</time>
      </trkpt>
      <trkpt lat="48.74211" lon="-3.99668">
        <ele>33.400001525879</ele>
        <time>2022-10-07T13:35:54Z</time>
      </trkpt>
      <trkpt lat="48.74202" lon="-3.99686">
        <ele>32.599998474121</ele>
        <time>2022-10-07T13:36:09Z</time>
      </trkpt>
      <trkpt lat="48.74198" lon="-3.99701">
        <ele>32</ele>
        <time>2022-10-07T13:36:27Z</time>
      </trkpt>
      <trkpt lat="48.74196" lon="-3.99712">
        <ele>31.39999961853</ele>
        <time>2022-10-07T13:36:40Z</time>
      </trkpt>
      <trkpt lat="48.74188" lon="-3.99736">
        <ele>30.200000762939</ele>
        <time>2022-10-07T13:36:58Z</time>
      </trkpt>
      <trkpt lat="48.74187" lon="-3.99739">
        <ele>30</ele>
        <time>2022-10-07T13:37:00Z</time>
      </trkpt>
      <trkpt lat="48.74185" lon="-3.99766">
        <ele>29.60000038147</ele>
        <time>2022-10-07T13:37:17Z</time>
      </trkpt>
      <trkpt lat="48.74182" lon="-3.99788">
        <ele>29.39999961853</ele>
        <time>2022-10-07T13:37:37Z</time>
      </trkpt>
      <trkpt lat="48.74179" lon="-3.99804">
        <ele>29.39999961853</ele>
        <time>2022-10-07T13:37:52Z</time>
      </trkpt>
      <trkpt lat="48.74171" lon="-3.99837">
        <ele>29.60000038147</ele>
        <time>2022-10-07T13:38:12Z</time>
      </trkpt>
      <trkpt lat="48.74165" lon="-3.9986">
        <ele>30</ele>
        <time>2022-10-07T13:38:29Z</time>
      </trkpt>
      <trkpt lat="48.74158" lon="-3.99878">
        <ele>30</ele>
        <time>2022-10-07T13:38:41Z</time>
      </trkpt>
      <trkpt lat="48.74153" lon="-3.99907">
        <ele>30</ele>
        <time>2022-10-07T13:38:57Z</time>
      </trkpt>
      <trkpt lat="48.74156" lon="-3.99933">
        <ele>31.200000762939</ele>
        <time>2022-10-07T13:39:15Z</time>
      </trkpt>
      <trkpt lat="48.74153" lon="-3.99957">
        <ele>32.599998474121</ele>
        <time>2022-10-07T13:39:30Z</time>
      </trkpt>
      <trkpt lat="48.74147" lon="-3.99979">
        <ele>33.200000762939</ele>
        <time>2022-10-07T13:39:47Z</time>
      </trkpt>
      <trkpt lat="48.74139" lon="-4.00001">
        <ele>33.400001525879</ele>
        <time>2022-10-07T13:40:06Z</time>
      </trkpt>
      <trkpt lat="48.74128" lon="-4.00026">
        <ele>34</ele>
        <time>2022-10-07T13:40:26Z</time>
      </trkpt>
      <trkpt lat="48.74128" lon="-4.00027">
        <ele>34</ele>
        <time>2022-10-07T13:40:27Z</time>
      </trkpt>
      <trkpt lat="48.74122" lon="-4.0006">
        <ele>34.599998474121</ele>
        <time>2022-10-07T13:40:49Z</time>
      </trkpt>
      <trkpt lat="48.7412" lon="-4.00078">
        <ele>34.599998474121</ele>
        <time>2022-10-07T13:41:01Z</time>
      </trkpt>
      <trkpt lat="48.74118" lon="-4.00094">
        <ele>33.200000762939</ele>
        <time>2022-10-07T13:41:19Z</time>
      </trkpt>
      <trkpt lat="48.74117" lon="-4.00113">
        <ele>30.60000038147</ele>
        <time>2022-10-07T13:41:35Z</time>
      </trkpt>
      <trkpt lat="48.74116" lon="-4.00128">
        <ele>27.200000762939</ele>
        <time>2022-10-07T13:41:49Z</time>
      </trkpt>
      <trkpt lat="48.74118" lon="-4.00146">
        <ele>23.799999237061</ele>
        <time>2022-10-07T13:41:59Z</time>
      </trkpt>
      <trkpt lat="48.74119" lon="-4.00147">
        <ele>23.799999237061</ele>
        <time>2022-10-07T13:42:00Z</time>
      </trkpt>
      <trkpt lat="48.74125" lon="-4.00161">
        <ele>23.60000038147</ele>
        <time>2022-10-07T13:42:10Z</time>
      </trkpt>
      <trkpt lat="48.74135" lon="-4.00188">
        <ele>23.799999237061</ele>
        <time>2022-10-07T13:42:27Z</time>
      </trkpt>
      <trkpt lat="48.74145" lon="-4.00217">
        <ele>24.39999961853</ele>
        <time>2022-10-07T13:42:46Z</time>
      </trkpt>
      <trkpt lat="48.74153" lon="-4.00242">
        <ele>24.200000762939</ele>
        <time>2022-10-07T13:43:01Z</time>
      </trkpt>
      <trkpt lat="48.74158" lon="-4.00265">
        <ele>24</ele>
        <time>2022-10-07T13:43:14Z</time>
      </trkpt>
      <trkpt lat="48.74162" lon="-4.00279">
        <ele>24</ele>
        <time>2022-10-07T13:43:22Z</time>
      </trkpt>
      <trkpt lat="48.7417" lon="-4.00307">
        <ele>24</ele>
        <time>2022-10-07T13:43:40Z</time>
      </trkpt>
      <trkpt lat="48.7418" lon="-4.0033">
        <ele>24.799999237061</ele>
        <time>2022-10-07T13:43:59Z</time>
      </trkpt>
      <trkpt lat="48.74182" lon="-4.00347">
        <ele>26.799999237061</ele>
        <time>2022-10-07T13:44:09Z</time>
      </trkpt>
      <trkpt lat="48.74182" lon="-4.00356">
        <ele>27.200000762939</ele>
        <time>2022-10-07T13:44:14Z</time>
      </trkpt>
      <trkpt lat="48.74184" lon="-4.00368">
        <ele>27.200000762939</ele>
        <time>2022-10-07T13:44:21Z</time>
      </trkpt>
      <trkpt lat="48.74182" lon="-4.00389">
        <ele>27</ele>
        <time>2022-10-07T13:44:33Z</time>
      </trkpt>
      <trkpt lat="48.74182" lon="-4.00412">
        <ele>28.799999237061</ele>
        <time>2022-10-07T13:44:52Z</time>
      </trkpt>
      <trkpt lat="48.74186" lon="-4.00422">
        <ele>30</ele>
        <time>2022-10-07T13:45:00Z</time>
      </trkpt>
      <trkpt lat="48.74195" lon="-4.00438">
        <ele>33.200000762939</ele>
        <time>2022-10-07T13:45:15Z</time>
      </trkpt>
      <trkpt lat="48.742" lon="-4.00453">
        <ele>36.200000762939</ele>
        <time>2022-10-07T13:45:28Z</time>
      </trkpt>
      <trkpt lat="48.742" lon="-4.00455">
        <ele>36.400001525879</ele>
        <time>2022-10-07T13:45:29Z</time>
      </trkpt>
      <trkpt lat="48.74184" lon="-4.00488">
        <ele>38</ele>
        <time>2022-10-07T13:45:52Z</time>
      </trkpt>
      <trkpt lat="48.74182" lon="-4.00521">
        <ele>38.200000762939</ele>
        <time>2022-10-07T13:46:11Z</time>
      </trkpt>
      <trkpt lat="48.74177" lon="-4.00555">
        <ele>38.400001525879</ele>
        <time>2022-10-07T13:46:29Z</time>
      </trkpt>
      <trkpt lat="48.74169" lon="-4.00582">
        <ele>38</ele>
        <time>2022-10-07T13:46:47Z</time>
      </trkpt>
      <trkpt lat="48.74171" lon="-4.0061">
        <ele>37.599998474121</ele>
        <time>2022-10-07T13:47:05Z</time>
      </trkpt>
      <trkpt lat="48.74173" lon="-4.00627">
        <ele>36.200000762939</ele>
        <time>2022-10-07T13:47:18Z</time>
      </trkpt>
      <trkpt lat="48.74155" lon="-4.00645">
        <ele>34.400001525879</ele>
        <time>2022-10-07T13:47:36Z</time>
      </trkpt>
      <trkpt lat="48.74152" lon="-4.00653">
        <ele>33.799999237061</ele>
        <time>2022-10-07T13:47:42Z</time>
      </trkpt>
      <trkpt lat="48.74146" lon="-4.00682">
        <ele>30.39999961853</ele>
        <time>2022-10-07T13:48:00Z</time>
      </trkpt>
      <trkpt lat="48.74143" lon="-4.00693">
        <ele>28.200000762939</ele>
        <time>2022-10-07T13:48:06Z</time>
      </trkpt>
      <trkpt lat="48.74127" lon="-4.00709">
        <ele>25</ele>
        <time>2022-10-07T13:48:22Z</time>
      </trkpt>
      <trkpt lat="48.74123" lon="-4.00711">
        <ele>24.39999961853</ele>
        <time>2022-10-07T13:48:36Z</time>
      </trkpt>
      <trkpt lat="48.74119" lon="-4.00713">
        <ele>24.60000038147</ele>
        <time>2022-10-07T13:48:40Z</time>
      </trkpt>
      <trkpt lat="48.74109" lon="-4.00723">
        <ele>25</ele>
        <time>2022-10-07T13:48:52Z</time>
      </trkpt>
      <trkpt lat="48.74094" lon="-4.0075">
        <ele>24.200000762939</ele>
        <time>2022-10-07T13:49:14Z</time>
      </trkpt>
      <trkpt lat="48.7409" lon="-4.0076">
        <ele>24</ele>
        <time>2022-10-07T13:49:22Z</time>
      </trkpt>
      <trkpt lat="48.74088" lon="-4.00762">
        <ele>24.200000762939</ele>
        <time>2022-10-07T13:49:24Z</time>
      </trkpt>
      <trkpt lat="48.74084" lon="-4.0077">
        <ele>24</ele>
        <time>2022-10-07T13:49:31Z</time>
      </trkpt>
      <trkpt lat="48.74091" lon="-4.00808">
        <ele>25.200000762939</ele>
        <time>2022-10-07T13:49:55Z</time>
      </trkpt>
      <trkpt lat="48.74093" lon="-4.00827">
        <ele>25.60000038147</ele>
        <time>2022-10-07T13:50:13Z</time>
      </trkpt>
      <trkpt lat="48.74093" lon="-4.00829">
        <ele>25.39999961853</ele>
        <time>2022-10-07T13:50:17Z</time>
      </trkpt>
    </trkseg>
  </trk>
</gpx>